<?xml version='1.0' encoding='UTF-8'?><gpx version="1.1" creator="JPX - https://github.com/jenetics/jpx" xmlns="http://www.topografix.com/GPX/1/1"><trk><trkseg><trkpt lat="46.05912551463708" lon="12.558892005285866"><ele>133.0</ele><time>2026-04-25T09:17:01Z</time></trkpt><trkpt lat="46.05917802871522" lon="12.558944071163602"><ele>133.0</ele><time>2026-04-25T09:17:05Z</time></trkpt><trkpt lat="46.059233294763686" lon="12.559018441973462"><ele>133.0</ele><time>2026-04-25T09:17:11Z</time></trkpt><trkpt lat="46.05927549896506" lon="12.559103205978165"><ele>133.0</ele><time>2026-04-25T09:17:16Z</time></trkpt><trkpt lat="46.0593287845549" lon="12.559159405761541"><ele>133.0</ele><time>2026-04-25T09:17:23Z</time></trkpt><trkpt lat="46.05939647868801" lon="12.55912106415554"><ele>133.0</ele><time>2026-04-25T09:17:27Z</time></trkpt><trkpt lat="46.059411608535214" lon="12.559032373915716"><ele>133.0</ele><time>2026-04-25T09:18:01Z</time></trkpt><trkpt lat="46.05948059590053" lon="12.558982209558991"><ele>133.0</ele><time>2026-04-25T09:18:08Z</time></trkpt><trkpt lat="46.05954233463962" lon="12.558928451589743"><ele>133.0</ele><time>2026-04-25T09:18:13Z</time></trkpt><trkpt lat="46.05960188653683" lon="12.558876174826164"><ele>133.0</ele><time>2026-04-25T09:18:18Z</time></trkpt><trkpt lat="46.05965468586315" lon="12.558824524914021"><ele>133.0</ele><time>2026-04-25T09:18:24Z</time></trkpt><trkpt lat="46.05969658525463" lon="12.558748741487245"><ele>133.0</ele><time>2026-04-25T09:18:30Z</time></trkpt><trkpt lat="46.05975350024411" lon="12.55869922473071"><ele>133.0</ele><time>2026-04-25T09:18:35Z</time></trkpt><trkpt lat="46.05980308545336" lon="12.558626487941353"><ele>133.0</ele><time>2026-04-25T09:18:41Z</time></trkpt><trkpt lat="46.059833365647556" lon="12.558544971905352"><ele>133.14285714285714</ele><time>2026-04-25T09:18:46Z</time></trkpt><trkpt lat="46.059898006538184" lon="12.558494944379621"><ele>133.28571428571428</ele><time>2026-04-25T09:19:11Z</time></trkpt><trkpt lat="46.059958730287555" lon="12.558467566571442"><ele>133.42857142857144</ele><time>2026-04-25T09:19:14Z</time></trkpt><trkpt lat="46.06000520432947" lon="12.558404191824435"><ele>133.57142857142856</ele><time>2026-04-25T09:19:21Z</time></trkpt><trkpt lat="46.06003883329962" lon="12.558314831091934"><ele>133.71428571428572</ele><time>2026-04-25T09:19:29Z</time></trkpt><trkpt lat="46.06009197980029" lon="12.558243381050273"><ele>133.85714285714286</ele><time>2026-04-25T09:19:34Z</time></trkpt><trkpt lat="46.06012052341349" lon="12.558159655648948"><ele>134.0</ele><time>2026-04-25T09:19:39Z</time></trkpt><trkpt lat="46.06018698372506" lon="12.558127538743951"><ele>134.0</ele><time>2026-04-25T09:19:46Z</time></trkpt><trkpt lat="46.060260541899865" lon="12.558115687328616"><ele>134.0</ele><time>2026-04-25T09:19:51Z</time></trkpt><trkpt lat="46.06032134401728" lon="12.558072567466567"><ele>134.0</ele><time>2026-04-25T09:19:57Z</time></trkpt><trkpt lat="46.06036566072908" lon="12.558003068862599"><ele>134.0</ele><time>2026-04-25T09:20:04Z</time></trkpt><trkpt lat="46.06042264103508" lon="12.557936728783293"><ele>134.0</ele><time>2026-04-25T09:20:10Z</time></trkpt><trkpt lat="46.06048425794657" lon="12.557896767796644"><ele>134.0</ele><time>2026-04-25T09:20:18Z</time></trkpt><trkpt lat="46.0605673492836" lon="12.557856886183915"><ele>134.0</ele><time>2026-04-25T09:20:23Z</time></trkpt><trkpt lat="46.06059471979859" lon="12.557768080126973"><ele>134.57142857142858</ele><time>2026-04-25T09:20:45Z</time></trkpt><trkpt lat="46.060662657637806" lon="12.557742926314882"><ele>135.14285714285714</ele><time>2026-04-25T09:20:52.001Z</time></trkpt><trkpt lat="46.06072942454901" lon="12.557731224622247"><ele>135.71428571428572</ele><time>2026-04-25T09:21:10Z</time></trkpt><trkpt lat="46.06078797028196" lon="12.55766367762669"><ele>136.28571428571428</ele><time>2026-04-25T09:21:15Z</time></trkpt><trkpt lat="46.060853122663936" lon="12.557605065801612"><ele>136.85714285714286</ele><time>2026-04-25T09:21:20Z</time></trkpt><trkpt lat="46.06091652876947" lon="12.557577671789002"><ele>137.42857142857144</ele><time>2026-04-25T09:21:25Z</time></trkpt><trkpt lat="46.06095360153009" lon="12.55750207451693"><ele>138.0</ele><time>2026-04-25T09:21:29Z</time></trkpt><trkpt lat="46.06100643340289" lon="12.557433566518053"><ele>138.28571428571428</ele><time>2026-04-25T09:21:36Z</time></trkpt><trkpt lat="46.061043220820075" lon="12.557353431845579"><ele>138.57142857142858</ele><time>2026-04-25T09:21:52Z</time></trkpt><trkpt lat="46.061092528579074" lon="12.557292401294516"><ele>138.85714285714286</ele><time>2026-04-25T09:21:58Z</time></trkpt><trkpt lat="46.06114736847871" lon="12.557220725553911"><ele>139.14285714285714</ele><time>2026-04-25T09:22:05Z</time></trkpt><trkpt lat="46.06118962539188" lon="12.557143673077128"><ele>139.42857142857144</ele><time>2026-04-25T09:22:16Z</time></trkpt><trkpt lat="46.061228710141464" lon="12.557059408204779"><ele>139.71428571428572</ele><time>2026-04-25T09:22:26Z</time></trkpt><trkpt lat="46.06126274623552" lon="12.55696956665268"><ele>140.0</ele><time>2026-04-25T09:22:36.001Z</time></trkpt><trkpt lat="46.06129123733551" lon="12.556888610718165"><ele>140.28571428571428</ele><time>2026-04-25T09:22:43.001Z</time></trkpt><trkpt lat="46.06133431393988" lon="12.556796160976418"><ele>140.57142857142856</ele><time>2026-04-25T09:22:50.001Z</time></trkpt><trkpt lat="46.06137668128444" lon="12.556727948207808"><ele>140.85714285714286</ele><time>2026-04-25T09:22:58.001Z</time></trkpt><trkpt lat="46.061416761726754" lon="12.55664745278309"><ele>141.14285714285714</ele><time>2026-04-25T09:23:05.001Z</time></trkpt><trkpt lat="46.06146406133608" lon="12.556571431926974"><ele>141.42857142857142</ele><time>2026-04-25T09:23:11Z</time></trkpt><trkpt lat="46.061468630716796" lon="12.556480047494869"><ele>141.71428571428572</ele><time>2026-04-25T09:23:16Z</time></trkpt><trkpt lat="46.06145812498519" lon="12.556390140013239"><ele>142.0</ele><time>2026-04-25T09:23:38Z</time></trkpt><trkpt lat="46.061474239894885" lon="12.556294402688156"><ele>142.0</ele><time>2026-04-25T09:23:44Z</time></trkpt><trkpt lat="46.0615313092311" lon="12.556239940834072"><ele>142.0</ele><time>2026-04-25T09:23:49Z</time></trkpt><trkpt lat="46.06159933840766" lon="12.556251966576543"><ele>142.0</ele><time>2026-04-25T09:23:56Z</time></trkpt><trkpt lat="46.06165343848015" lon="12.55619606392632"><ele>142.0</ele><time>2026-04-25T09:24:01Z</time></trkpt><trkpt lat="46.0616720276249" lon="12.556093690206545"><ele>142.0</ele><time>2026-04-25T09:24:06Z</time></trkpt><trkpt lat="46.061681539250095" lon="12.555987585439047"><ele>142.0</ele><time>2026-04-25T09:24:13Z</time></trkpt><trkpt lat="46.06168051203468" lon="12.555894455922815"><ele>142.0</ele><time>2026-04-25T09:24:17Z</time></trkpt><trkpt lat="46.06169979629448" lon="12.555789686302829"><ele>142.28571428571428</ele><time>2026-04-25T09:24:25Z</time></trkpt><trkpt lat="46.061706535131925" lon="12.55567497883739"><ele>142.57142857142856</ele><time>2026-04-25T09:24:32Z</time></trkpt><trkpt lat="46.06171538623516" lon="12.555582128493826"><ele>142.85714285714286</ele><time>2026-04-25T09:24:38.001Z</time></trkpt><trkpt lat="46.061728418471525" lon="12.555486981081996"><ele>143.14285714285714</ele><time>2026-04-25T09:24:44.001Z</time></trkpt><trkpt lat="46.06173327958529" lon="12.555388609675754"><ele>143.42857142857144</ele><time>2026-04-25T09:24:49.001Z</time></trkpt><trkpt lat="46.06172706694219" lon="12.555294530491626"><ele>143.71428571428572</ele><time>2026-04-25T09:24:55.001Z</time></trkpt><trkpt lat="46.061727008424256" lon="12.555193447233188"><ele>144.0</ele><time>2026-04-25T09:25:09.001Z</time></trkpt><trkpt lat="46.06177685137852" lon="12.555122552581333"><ele>144.57142857142858</ele><time>2026-04-25T09:25:15.999Z</time></trkpt><trkpt lat="46.061848344150214" lon="12.555076070152941"><ele>145.14285714285714</ele><time>2026-04-25T09:25:22Z</time></trkpt><trkpt lat="46.06191542573382" lon="12.555074645217827"><ele>145.71428571428572</ele><time>2026-04-25T09:25:29Z</time></trkpt><trkpt lat="46.06197402730848" lon="12.555038303710948"><ele>146.28571428571428</ele><time>2026-04-25T09:25:37Z</time></trkpt><trkpt lat="46.06204941344737" lon="12.555011491578586"><ele>146.85714285714286</ele><time>2026-04-25T09:25:43Z</time></trkpt><trkpt lat="46.0620752948057" lon="12.554913181589479"><ele>147.42857142857144</ele><time>2026-04-25T09:25:49Z</time></trkpt><trkpt lat="46.062033032271025" lon="12.554840055583941"><ele>148.0</ele><time>2026-04-25T09:25:56Z</time></trkpt><trkpt lat="46.0620015755143" lon="12.55476012082449"><ele>148.0</ele><time>2026-04-25T09:26:03Z</time></trkpt><trkpt lat="46.06202464343963" lon="12.554668762703626"><ele>148.0</ele><time>2026-04-25T09:26:14Z</time></trkpt><trkpt lat="46.0619884304093" lon="12.554593774459835"><ele>148.0</ele><time>2026-04-25T09:26:19Z</time></trkpt><trkpt lat="46.061957966011995" lon="12.55449896967157"><ele>148.0</ele><time>2026-04-25T09:26:27Z</time></trkpt><trkpt lat="46.06193741251213" lon="12.554403745961872"><ele>148.0</ele><time>2026-04-25T09:26:32Z</time></trkpt><trkpt lat="46.06190351295001" lon="12.554320449367122"><ele>148.0</ele><time>2026-04-25T09:26:37Z</time></trkpt><trkpt lat="46.061884108398864" lon="12.554226143080378"><ele>148.0</ele><time>2026-04-25T09:26:43Z</time></trkpt><trkpt lat="46.06191676343772" lon="12.554148284412237"><ele>148.28571428571428</ele><time>2026-04-25T09:26:50.001Z</time></trkpt><trkpt lat="46.06185729962983" lon="12.554099617428887"><ele>148.57142857142856</ele><time>2026-04-25T09:26:58.001Z</time></trkpt><trkpt lat="46.061805535302206" lon="12.554033265028895"><ele>148.85714285714283</ele><time>2026-04-25T09:27:03.001Z</time></trkpt><trkpt lat="46.06176103853521" lon="12.553941854983893"><ele>149.14285714285714</ele><time>2026-04-25T09:27:12.001Z</time></trkpt><trkpt lat="46.06172653656032" lon="12.553865509990802"><ele>149.42857142857142</ele><time>2026-04-25T09:27:22Z</time></trkpt><trkpt lat="46.0616705505338" lon="12.553820651121336"><ele>149.7142857142857</ele><time>2026-04-25T09:27:38Z</time></trkpt><trkpt lat="46.061632350242526" lon="12.553746028215818"><ele>150.0</ele><time>2026-04-25T09:27:44Z</time></trkpt><trkpt lat="46.061646275393294" lon="12.553657391079343"><ele>150.14285714285714</ele><time>2026-04-25T09:27:50Z</time></trkpt><trkpt lat="46.06165124786489" lon="12.55356375704152"><ele>150.28571428571428</ele><time>2026-04-25T09:27:55Z</time></trkpt><trkpt lat="46.06168943500375" lon="12.553479445303534"><ele>150.42857142857144</ele><time>2026-04-25T09:28:03Z</time></trkpt><trkpt lat="46.061716515062" lon="12.55335980107691"><ele>150.57142857142856</ele><time>2026-04-25T09:28:08Z</time></trkpt><trkpt lat="46.06174758722384" lon="12.553271918151847"><ele>150.71428571428572</ele><time>2026-04-25T09:28:14Z</time></trkpt><trkpt lat="46.0617633336179" lon="12.55317822166505"><ele>150.85714285714286</ele><time>2026-04-25T09:28:20Z</time></trkpt><trkpt lat="46.061774833696724" lon="12.553084842122889"><ele>151.0</ele><time>2026-04-25T09:28:29Z</time></trkpt><trkpt lat="46.061840569721994" lon="12.553079995263856"><ele>151.00000000000003</ele><time>2026-04-25T09:28:36Z</time></trkpt><trkpt lat="46.06190767938614" lon="12.553047780312577"><ele>151.0</ele><time>2026-04-25T09:28:43.001Z</time></trkpt><trkpt lat="46.061953887810745" lon="12.552977934095841"><ele>151.0</ele><time>2026-04-25T09:28:47.001Z</time></trkpt><trkpt lat="46.06196888507161" lon="12.552887338180778"><ele>151.0</ele><time>2026-04-25T09:28:54.001Z</time></trkpt><trkpt lat="46.06197132591909" lon="12.55279550072934"><ele>151.0</ele><time>2026-04-25T09:28:59.001Z</time></trkpt><trkpt lat="46.061990596873514" lon="12.552709006520505"><ele>151.00000000000003</ele><time>2026-04-25T09:29:07.001Z</time></trkpt><trkpt lat="46.06197002948378" lon="12.552617311991247"><ele>151.0</ele><time>2026-04-25T09:29:12.001Z</time></trkpt><trkpt lat="46.06198132329231" lon="12.552505154022844"><ele>151.00000000000003</ele><time>2026-04-25T09:29:18.001Z</time></trkpt><trkpt lat="46.061959938371906" lon="12.552406066344348"><ele>151.0</ele><time>2026-04-25T09:29:23.001Z</time></trkpt><trkpt lat="46.06196097433554" lon="12.552309714004611"><ele>151.0</ele><time>2026-04-25T09:29:28.999Z</time></trkpt><trkpt lat="46.06197144549608" lon="12.552217213273819"><ele>151.0</ele><time>2026-04-25T09:29:33.999Z</time></trkpt><trkpt lat="46.06198005170074" lon="12.552113937328844"><ele>151.0</ele><time>2026-04-25T09:29:39.999Z</time></trkpt><trkpt lat="46.061989698948004" lon="12.552012349912914"><ele>151.00000000000003</ele><time>2026-04-25T09:29:45Z</time></trkpt><trkpt lat="46.06200596654014" lon="12.551909032566916"><ele>151.0</ele><time>2026-04-25T09:29:51Z</time></trkpt><trkpt lat="46.062069255032746" lon="12.551961873150237"><ele>151.00000000000003</ele><time>2026-04-25T09:29:59Z</time></trkpt><trkpt lat="46.06208468544273" lon="12.552073185565352"><ele>151.0</ele><time>2026-04-25T09:30:04Z</time></trkpt><trkpt lat="46.06210543403614" lon="12.552168819753204"><ele>151.0</ele><time>2026-04-25T09:30:09Z</time></trkpt><trkpt lat="46.06214500583293" lon="12.552242396890456"><ele>151.0</ele><time>2026-04-25T09:30:16Z</time></trkpt><trkpt lat="46.062158779890815" lon="12.552333807753882"><ele>151.0</ele><time>2026-04-25T09:30:21Z</time></trkpt><trkpt lat="46.062196945092104" lon="12.552413985034534"><ele>151.00000000000003</ele><time>2026-04-25T09:30:26Z</time></trkpt><trkpt lat="46.06223856221091" lon="12.552488014068393"><ele>151.0</ele><time>2026-04-25T09:30:32Z</time></trkpt><trkpt lat="46.06227360891926" lon="12.552577885312026"><ele>151.00000000000003</ele><time>2026-04-25T09:30:38Z</time></trkpt><trkpt lat="46.06229658391642" lon="12.552666056260328"><ele>151.0</ele><time>2026-04-25T09:30:46Z</time></trkpt><trkpt lat="46.06231990317796" lon="12.552758668415047"><ele>151.0</ele><time>2026-04-25T09:30:52.001Z</time></trkpt><trkpt lat="46.06231345608209" lon="12.552853232212124"><ele>151.0</ele><time>2026-04-25T09:30:57.001Z</time></trkpt><trkpt lat="46.06231873847996" lon="12.552984653033732"><ele>151.0</ele><time>2026-04-25T09:31:04.001Z</time></trkpt><trkpt lat="46.06235667343613" lon="12.553078332298881"><ele>151.00000000000003</ele><time>2026-04-25T09:31:11.001Z</time></trkpt><trkpt lat="46.062344116068296" lon="12.553172728403919"><ele>151.0</ele><time>2026-04-25T09:31:16.001Z</time></trkpt><trkpt lat="46.06235192226241" lon="12.5532848693687"><ele>151.00000000000003</ele><time>2026-04-25T09:31:21.001Z</time></trkpt><trkpt lat="46.062349584769244" lon="12.553385646790666"><ele>151.0</ele><time>2026-04-25T09:31:26.001Z</time></trkpt><trkpt lat="46.06235718239893" lon="12.553481868729532"><ele>151.0</ele><time>2026-04-25T09:31:30.999Z</time></trkpt><trkpt lat="46.062380776640154" lon="12.55358255858074"><ele>151.0</ele><time>2026-04-25T09:31:36.999Z</time></trkpt><trkpt lat="46.06239914958419" lon="12.5536801496008"><ele>151.0</ele><time>2026-04-25T09:31:44.999Z</time></trkpt><trkpt lat="46.06242915217982" lon="12.553783933951463"><ele>151.00000000000003</ele><time>2026-04-25T09:31:50.999Z</time></trkpt><trkpt lat="46.06245031510133" lon="12.553872256936364"><ele>151.0</ele><time>2026-04-25T09:31:56.999Z</time></trkpt><trkpt lat="46.06248601916488" lon="12.553951050190637"><ele>152.14285714285717</ele><time>2026-04-25T09:32:02Z</time></trkpt><trkpt lat="46.06251569952943" lon="12.554038440803547"><ele>153.28571428571428</ele><time>2026-04-25T09:32:07Z</time></trkpt><trkpt lat="46.06254585872905" lon="12.554131771120675"><ele>154.42857142857144</ele><time>2026-04-25T09:32:12Z</time></trkpt><trkpt lat="46.06259955843538" lon="12.55421386123408"><ele>155.57142857142858</ele><time>2026-04-25T09:32:19Z</time></trkpt><trkpt lat="46.06264830034924" lon="12.554278594816621"><ele>156.71428571428572</ele><time>2026-04-25T09:32:25Z</time></trkpt><trkpt lat="46.06271756560477" lon="12.55425256461362"><ele>157.85714285714286</ele><time>2026-04-25T09:32:30Z</time></trkpt><trkpt lat="46.06278812984298" lon="12.554197426193124"><ele>159.0</ele><time>2026-04-25T09:32:36Z</time></trkpt><trkpt lat="46.062837750260655" lon="12.554136468686403"><ele>159.0</ele><time>2026-04-25T09:32:39Z</time></trkpt><trkpt lat="46.06290904458555" lon="12.554126035463073"><ele>159.0</ele><time>2026-04-25T09:32:45Z</time></trkpt><trkpt lat="46.06297951919929" lon="12.554067030576455"><ele>159.0</ele><time>2026-04-25T09:32:50Z</time></trkpt><trkpt lat="46.06303137322027" lon="12.55399505821411"><ele>159.0</ele><time>2026-04-25T09:32:56.001Z</time></trkpt><trkpt lat="46.06309666008885" lon="12.554000494573135"><ele>159.0</ele><time>2026-04-25T09:34:33.001Z</time></trkpt><trkpt lat="46.06313258141121" lon="12.554094280977377"><ele>159.0</ele><time>2026-04-25T09:34:39.001Z</time></trkpt><trkpt lat="46.06314574987766" lon="12.554192648660173"><ele>159.0</ele><time>2026-04-25T09:34:46.001Z</time></trkpt><trkpt lat="46.063174165997765" lon="12.554282009699701"><ele>159.0</ele><time>2026-04-25T09:34:52.001Z</time></trkpt><trkpt lat="46.063218115485405" lon="12.554368233468674"><ele>159.0</ele><time>2026-04-25T09:34:58.001Z</time></trkpt><trkpt lat="46.063275140816096" lon="12.554421627754538"><ele>159.0</ele><time>2026-04-25T09:35:06.001Z</time></trkpt><trkpt lat="46.06331315492196" lon="12.554494107906471"><ele>159.0</ele><time>2026-04-25T09:35:13.001Z</time></trkpt><trkpt lat="46.063363534357826" lon="12.554555159792832"><ele>159.0</ele><time>2026-04-25T09:35:19.001Z</time></trkpt><trkpt lat="46.06340954198853" lon="12.554625584847825"><ele>159.0</ele><time>2026-04-25T09:35:24.001Z</time></trkpt><trkpt lat="46.063447039094015" lon="12.554700750666319"><ele>159.0</ele><time>2026-04-25T09:35:31.002Z</time></trkpt><trkpt lat="46.06344192161849" lon="12.55480012534645"><ele>161.0</ele><time>2026-04-25T09:35:37.002Z</time></trkpt><trkpt lat="46.06347353443863" lon="12.554882705292712"><ele>163.0</ele><time>2026-04-25T09:35:42.999Z</time></trkpt><trkpt lat="46.063530779248254" lon="12.55494961527144"><ele>165.0</ele><time>2026-04-25T09:35:49.999Z</time></trkpt><trkpt lat="46.06359610649774" lon="12.554977999229843"><ele>167.0</ele><time>2026-04-25T09:35:55Z</time></trkpt><trkpt lat="46.06367338420095" lon="12.555001001728614"><ele>169.0</ele><time>2026-04-25T09:36:02Z</time></trkpt><trkpt lat="46.063737104374056" lon="12.555034649894596"><ele>171.0</ele><time>2026-04-25T09:36:07Z</time></trkpt><trkpt lat="46.06378781763404" lon="12.555105117744777"><ele>173.0</ele><time>2026-04-25T09:36:13Z</time></trkpt><trkpt lat="46.06384227878554" lon="12.555176383241303"><ele>173.0</ele><time>2026-04-25T09:36:20Z</time></trkpt><trkpt lat="46.06387806844871" lon="12.555252893152167"><ele>173.0</ele><time>2026-04-25T09:36:25Z</time></trkpt><trkpt lat="46.06390154630413" lon="12.555344951465923"><ele>173.0</ele><time>2026-04-25T09:36:31Z</time></trkpt><trkpt lat="46.063928755690995" lon="12.55543233924279"><ele>173.0</ele><time>2026-04-25T09:36:36Z</time></trkpt><trkpt lat="46.06398635000799" lon="12.555486231841263"><ele>173.0</ele><time>2026-04-25T09:36:43.001Z</time></trkpt><trkpt lat="46.06405052699861" lon="12.55552929603283"><ele>173.0</ele><time>2026-04-25T09:36:50.001Z</time></trkpt><trkpt lat="46.0640996635253" lon="12.555587688540063"><ele>173.0</ele><time>2026-04-25T09:36:57.001Z</time></trkpt><trkpt lat="46.06417533207503" lon="12.55561526752395"><ele>174.28571428571428</ele><time>2026-04-25T09:37:03.001Z</time></trkpt><trkpt lat="46.06422206473607" lon="12.555692028774255"><ele>175.57142857142858</ele><time>2026-04-25T09:37:14.001Z</time></trkpt><trkpt lat="46.064280372776075" lon="12.55572756965149"><ele>176.85714285714286</ele><time>2026-04-25T09:37:19.001Z</time></trkpt><trkpt lat="46.06434319223085" lon="12.555767455014426"><ele>178.14285714285714</ele><time>2026-04-25T09:37:24.001Z</time></trkpt><trkpt lat="46.06439254945714" lon="12.555829453880573"><ele>179.42857142857144</ele><time>2026-04-25T09:37:31.001Z</time></trkpt><trkpt lat="46.06443609456377" lon="12.555897389146281"><ele>180.71428571428572</ele><time>2026-04-25T09:37:36.002Z</time></trkpt><trkpt lat="46.064499144992844" lon="12.555909261560906"><ele>182.0</ele><time>2026-04-25T09:37:44.002Z</time></trkpt><trkpt lat="46.06454908505138" lon="12.555968602286505"><ele>182.0</ele><time>2026-04-25T09:37:49Z</time></trkpt><trkpt lat="46.064584739537615" lon="12.556050853144871"><ele>182.0</ele><time>2026-04-25T09:37:55Z</time></trkpt><trkpt lat="46.06460842311828" lon="12.556150221864375"><ele>182.0</ele><time>2026-04-25T09:38:01Z</time></trkpt><trkpt lat="46.06466538517261" lon="12.556190442182906"><ele>182.0</ele><time>2026-04-25T09:38:06Z</time></trkpt><trkpt lat="46.064703350215446" lon="12.556264334766663"><ele>182.0</ele><time>2026-04-25T09:38:12Z</time></trkpt><trkpt lat="46.06469883930962" lon="12.556360285221087"><ele>182.0</ele><time>2026-04-25T09:38:25.001Z</time></trkpt><trkpt lat="46.064721313199136" lon="12.5564543290173"><ele>182.0</ele><time>2026-04-25T09:38:30.001Z</time></trkpt><trkpt lat="46.06474733164584" lon="12.55654673588618"><ele>182.42857142857142</ele><time>2026-04-25T09:38:36.001Z</time></trkpt><trkpt lat="46.06476074594046" lon="12.556661874748443"><ele>182.85714285714286</ele><time>2026-04-25T09:38:42.001Z</time></trkpt><trkpt lat="46.06475950464755" lon="12.556770091987955"><ele>183.28571428571428</ele><time>2026-04-25T09:38:49.001Z</time></trkpt><trkpt lat="46.06470984524162" lon="12.556851384917383"><ele>183.71428571428572</ele><time>2026-04-25T09:38:55.001Z</time></trkpt><trkpt lat="46.06465703848071" lon="12.556920652785788"><ele>184.14285714285714</ele><time>2026-04-25T09:39:02.001Z</time></trkpt><trkpt lat="46.06463524281538" lon="12.557008925107944"><ele>184.57142857142856</ele><time>2026-04-25T09:39:07.001Z</time></trkpt><trkpt lat="46.06465255661248" lon="12.557098468986887"><ele>185.0</ele><time>2026-04-25T09:39:13.001Z</time></trkpt><trkpt lat="46.06466828857146" lon="12.557192023302848"><ele>185.85714285714283</ele><time>2026-04-25T09:39:17.001Z</time></trkpt><trkpt lat="46.064712110041015" lon="12.557273987897206"><ele>186.71428571428572</ele><time>2026-04-25T09:39:24.002Z</time></trkpt><trkpt lat="46.06473347969931" lon="12.557367305443492"><ele>187.57142857142856</ele><time>2026-04-25T09:39:28.002Z</time></trkpt><trkpt lat="46.064770296375805" lon="12.557459572078502"><ele>188.42857142857142</ele><time>2026-04-25T09:39:33.002Z</time></trkpt><trkpt lat="46.06481196959569" lon="12.557537320320385"><ele>189.28571428571428</ele><time>2026-04-25T09:39:39.002Z</time></trkpt><trkpt lat="46.064864441600875" lon="12.55760009614216"><ele>190.14285714285714</ele><time>2026-04-25T09:39:45.002Z</time></trkpt><trkpt lat="46.06491050481483" lon="12.557685335020906"><ele>191.0</ele><time>2026-04-25T09:39:52.002Z</time></trkpt><trkpt lat="46.064915142960274" lon="12.557776986247074"><ele>191.71428571428572</ele><time>2026-04-25T09:39:57.001Z</time></trkpt><trkpt lat="46.064955066714" lon="12.557851638482163"><ele>192.42857142857142</ele><time>2026-04-25T09:40:05.001Z</time></trkpt><trkpt lat="46.06499801241574" lon="12.55793488521399"><ele>193.14285714285714</ele><time>2026-04-25T09:40:13.001Z</time></trkpt><trkpt lat="46.065024261852415" lon="12.558040258702873"><ele>193.85714285714286</ele><time>2026-04-25T09:40:34.001Z</time></trkpt><trkpt lat="46.065058822398676" lon="12.558131674829573"><ele>194.57142857142856</ele><time>2026-04-25T09:40:57.001Z</time></trkpt><trkpt lat="46.06510119796872" lon="12.558200019637743"><ele>195.28571428571428</ele><time>2026-04-25T09:41:03.001Z</time></trkpt><trkpt lat="46.0651391941858" lon="12.558288662537384"><ele>196.0</ele><time>2026-04-25T09:41:09.001Z</time></trkpt><trkpt lat="46.06517511587758" lon="12.558376366531931"><ele>196.14285714285714</ele><time>2026-04-25T09:41:14.001Z</time></trkpt><trkpt lat="46.06521041023166" lon="12.558470670182757"><ele>196.28571428571428</ele><time>2026-04-25T09:41:19.001Z</time></trkpt><trkpt lat="46.065252767578706" lon="12.558555803248456"><ele>196.42857142857144</ele><time>2026-04-25T09:41:28.002Z</time></trkpt><trkpt lat="46.065325270008394" lon="12.558552603399963"><ele>196.57142857142856</ele><time>2026-04-25T09:41:34.002Z</time></trkpt><trkpt lat="46.06538767154316" lon="12.558581722927139"><ele>196.71428571428572</ele><time>2026-04-25T09:41:39.002Z</time></trkpt><trkpt lat="46.06545360565797" lon="12.558627825957082"><ele>196.85714285714286</ele><time>2026-04-25T09:41:45.002Z</time></trkpt><trkpt lat="46.06552758174753" lon="12.558620205745491"><ele>197.0</ele><time>2026-04-25T09:41:52.002Z</time></trkpt><trkpt lat="46.065585882206136" lon="12.55866809020805"><ele>197.0</ele><time>2026-04-25T09:41:57.002Z</time></trkpt><trkpt lat="46.06565345153778" lon="12.55869952501672"><ele>197.0</ele><time>2026-04-25T09:42:04Z</time></trkpt><trkpt lat="46.06571695216485" lon="12.558738344955671"><ele>197.0</ele><time>2026-04-25T09:42:10Z</time></trkpt><trkpt lat="46.06575057377835" lon="12.55883336428348"><ele>197.0</ele><time>2026-04-25T09:42:15Z</time></trkpt><trkpt lat="46.06579714804656" lon="12.558918790730134"><ele>197.0</ele><time>2026-04-25T09:42:21Z</time></trkpt><trkpt lat="46.06583399197287" lon="12.558994156766275"><ele>197.0</ele><time>2026-04-25T09:42:26Z</time></trkpt><trkpt lat="46.065867521677234" lon="12.559071920157058"><ele>197.0</ele><time>2026-04-25T09:42:32Z</time></trkpt><trkpt lat="46.065910850904636" lon="12.559138977286501"><ele>197.33333333333334</ele><time>2026-04-25T09:42:38Z</time></trkpt><trkpt lat="46.065861111260936" lon="12.55907289137817"><ele>197.66666666666669</ele><time>2026-04-25T09:42:48.001Z</time></trkpt><trkpt lat="46.0658941041809" lon="12.55918763171498"><ele>198.0</ele><time>2026-04-25T09:43:21.001Z</time></trkpt><trkpt lat="46.06598443331978" lon="12.559192255750828"><ele>198.33333333333331</ele><time>2026-04-25T09:43:27.001Z</time></trkpt><trkpt lat="46.066042847650685" lon="12.559243863075906"><ele>198.66666666666666</ele><time>2026-04-25T09:43:40.001Z</time></trkpt><trkpt lat="46.06604297246841" lon="12.559350262079702"><ele>199.0</ele><time>2026-04-25T09:43:44.001Z</time></trkpt><trkpt lat="46.066038014421565" lon="12.559441004199842"><ele>199.14285714285714</ele><time>2026-04-25T09:43:49.001Z</time></trkpt><trkpt lat="46.06607573509045" lon="12.5595377518012"><ele>199.28571428571428</ele><time>2026-04-25T09:43:55.002Z</time></trkpt><trkpt lat="46.06603787966523" lon="12.559614791650793"><ele>199.42857142857144</ele><time>2026-04-25T09:44:01.002Z</time></trkpt><trkpt lat="46.06602201407331" lon="12.55971280783278"><ele>199.57142857142856</ele><time>2026-04-25T09:44:08Z</time></trkpt><trkpt lat="46.066046942890374" lon="12.559814561700087"><ele>199.71428571428572</ele><time>2026-04-25T09:44:14Z</time></trkpt><trkpt lat="46.06602962738399" lon="12.559912605522932"><ele>199.85714285714286</ele><time>2026-04-25T09:44:21Z</time></trkpt><trkpt lat="46.06598878792999" lon="12.559991000618258"><ele>200.0</ele><time>2026-04-25T09:44:25Z</time></trkpt><trkpt lat="46.06600562963186" lon="12.560096610885905"><ele>200.00000000000003</ele><time>2026-04-25T09:44:30Z</time></trkpt><trkpt lat="46.065991114171" lon="12.560195326031756"><ele>200.0</ele><time>2026-04-25T09:44:35Z</time></trkpt><trkpt lat="46.065960082682" lon="12.560288913027682"><ele>200.0</ele><time>2026-04-25T09:44:43Z</time></trkpt><trkpt lat="46.065966032862704" lon="12.560396762186063"><ele>200.0</ele><time>2026-04-25T09:44:49Z</time></trkpt><trkpt lat="46.06600055158739" lon="12.5604845862686"><ele>200.0</ele><time>2026-04-25T09:44:54Z</time></trkpt><trkpt lat="46.066024459970514" lon="12.560572676522156"><ele>200.00000000000003</ele><time>2026-04-25T09:44:59Z</time></trkpt><trkpt lat="46.06604589963434" lon="12.560660168282995"><ele>200.0</ele><time>2026-04-25T09:45:05.001Z</time></trkpt><trkpt lat="46.06607698169622" lon="12.560748677001259"><ele>199.71428571428572</ele><time>2026-04-25T09:45:10.001Z</time></trkpt><trkpt lat="46.06611551307277" lon="12.560841492637373"><ele>199.42857142857144</ele><time>2026-04-25T09:45:15.001Z</time></trkpt><trkpt lat="46.06615152369666" lon="12.560932666800397"><ele>199.14285714285717</ele><time>2026-04-25T09:45:20.001Z</time></trkpt><trkpt lat="46.06617425288491" lon="12.561036895905987"><ele>198.85714285714286</ele><time>2026-04-25T09:45:25.001Z</time></trkpt><trkpt lat="46.06620432726939" lon="12.561129944949379"><ele>198.57142857142856</ele><time>2026-04-25T09:45:30.001Z</time></trkpt><trkpt lat="46.066197823672425" lon="12.561224975336382"><ele>198.2857142857143</ele><time>2026-04-25T09:45:35.001Z</time></trkpt><trkpt lat="46.066188022660285" lon="12.561317322882507"><ele>198.0</ele><time>2026-04-25T09:45:40.001Z</time></trkpt><trkpt lat="46.06614211171624" lon="12.561401411924624"><ele>197.0</ele><time>2026-04-25T09:45:45.001Z</time></trkpt><trkpt lat="46.06607259019671" lon="12.561400050316092"><ele>196.0</ele><time>2026-04-25T09:45:49.001Z</time></trkpt><trkpt lat="46.06600148562582" lon="12.561435236468904"><ele>195.0</ele><time>2026-04-25T09:45:54.001Z</time></trkpt><trkpt lat="46.06596790919406" lon="12.56151817419895"><ele>194.0</ele><time>2026-04-25T09:46:01.001Z</time></trkpt><trkpt lat="46.06597051546326" lon="12.561616392228602"><ele>193.0</ele><time>2026-04-25T09:46:06.001Z</time></trkpt><trkpt lat="46.065967943936215" lon="12.561712671679448"><ele>192.0</ele><time>2026-04-25T09:46:10.001Z</time></trkpt><trkpt lat="46.066008360456365" lon="12.561808053606935"><ele>191.0</ele><time>2026-04-25T09:46:14Z</time></trkpt><trkpt lat="46.06604900209854" lon="12.561888374504775"><ele>191.0</ele><time>2026-04-25T09:46:18Z</time></trkpt><trkpt lat="46.066100562982385" lon="12.561951402825676"><ele>191.0</ele><time>2026-04-25T09:46:24Z</time></trkpt><trkpt lat="46.066157543608504" lon="12.561997849201028"><ele>191.0</ele><time>2026-04-25T09:46:30Z</time></trkpt><trkpt lat="46.06619002735453" lon="12.562100248889456"><ele>191.0</ele><time>2026-04-25T09:46:35Z</time></trkpt><trkpt lat="46.06619383136442" lon="12.562191845126227"><ele>191.0</ele><time>2026-04-25T09:46:38Z</time></trkpt><trkpt lat="46.06615756682362" lon="12.562272196141393"><ele>191.0</ele><time>2026-04-25T09:46:42Z</time></trkpt><trkpt lat="46.06612242160657" lon="12.56235279889744"><ele>191.0</ele><time>2026-04-25T09:46:46Z</time></trkpt><trkpt lat="46.0660748114147" lon="12.562419934430693"><ele>190.57142857142858</ele><time>2026-04-25T09:46:51Z</time></trkpt><trkpt lat="46.06609718987964" lon="12.562509434063939"><ele>190.14285714285714</ele><time>2026-04-25T09:46:59.001Z</time></trkpt><trkpt lat="46.066157566042186" lon="12.562539669677445"><ele>189.71428571428572</ele><time>2026-04-25T09:47:04.001Z</time></trkpt><trkpt lat="46.066223901560846" lon="12.56259399920828"><ele>189.28571428571428</ele><time>2026-04-25T09:47:09.001Z</time></trkpt><trkpt lat="46.06628002799744" lon="12.562667607915833"><ele>188.85714285714283</ele><time>2026-04-25T09:47:14.001Z</time></trkpt><trkpt lat="46.066307114608" lon="12.562769929570704"><ele>188.42857142857142</ele><time>2026-04-25T09:47:21.001Z</time></trkpt><trkpt lat="46.066310964650164" lon="12.56286879685208"><ele>188.0</ele><time>2026-04-25T09:47:28.001Z</time></trkpt><trkpt lat="46.06634045210101" lon="12.562962332229468"><ele>187.28571428571428</ele><time>2026-04-25T09:47:33.001Z</time></trkpt><trkpt lat="46.06641231596559" lon="12.562976642297484"><ele>186.57142857142856</ele><time>2026-04-25T09:47:41.001Z</time></trkpt><trkpt lat="46.06647467239472" lon="12.563030057455506"><ele>185.85714285714286</ele><time>2026-04-25T09:47:45.001Z</time></trkpt><trkpt lat="46.06652695624262" lon="12.56310757506833"><ele>185.14285714285714</ele><time>2026-04-25T09:47:50.001Z</time></trkpt><trkpt lat="46.06653145839021" lon="12.563212268090322"><ele>184.42857142857144</ele><time>2026-04-25T09:47:55.001Z</time></trkpt><trkpt lat="46.06649552187309" lon="12.563288799172541"><ele>183.71428571428572</ele><time>2026-04-25T09:48:00.001Z</time></trkpt><trkpt lat="46.066485551644156" lon="12.563393484707024"><ele>183.0</ele><time>2026-04-25T09:48:06.001Z</time></trkpt><trkpt lat="46.06646241204335" lon="12.563493598139058"><ele>183.0</ele><time>2026-04-25T09:48:12.002Z</time></trkpt><trkpt lat="46.06646730490178" lon="12.56360266026012"><ele>183.0</ele><time>2026-04-25T09:48:18.001Z</time></trkpt><trkpt lat="46.06649690548485" lon="12.56370458921867"><ele>183.0</ele><time>2026-04-25T09:48:23.001Z</time></trkpt><trkpt lat="46.06652226556373" lon="12.563788941675977"><ele>183.0</ele><time>2026-04-25T09:48:29.001Z</time></trkpt><trkpt lat="46.06653045339213" lon="12.563900094696987"><ele>183.0</ele><time>2026-04-25T09:48:43.001Z</time></trkpt><trkpt lat="46.06654723222513" lon="12.563991473714323"><ele>183.0</ele><time>2026-04-25T09:48:47.001Z</time></trkpt><trkpt lat="46.066558635225654" lon="12.56409011468434"><ele>183.0</ele><time>2026-04-25T09:48:52.001Z</time></trkpt><trkpt lat="46.06658312914374" lon="12.56418561075545"><ele>182.57142857142858</ele><time>2026-04-25T09:48:57.001Z</time></trkpt><trkpt lat="46.06665284702161" lon="12.564179746291874"><ele>182.14285714285717</ele><time>2026-04-25T09:49:01.001Z</time></trkpt><trkpt lat="46.0666986774265" lon="12.564112056333862"><ele>181.71428571428572</ele><time>2026-04-25T09:49:05.001Z</time></trkpt><trkpt lat="46.066753811240886" lon="12.564039746744012"><ele>181.28571428571428</ele><time>2026-04-25T09:49:13.001Z</time></trkpt><trkpt lat="46.06681834789062" lon="12.563991313810227"><ele>180.85714285714286</ele><time>2026-04-25T09:49:20.001Z</time></trkpt><trkpt lat="46.06686718837291" lon="12.563924488642858"><ele>180.42857142857142</ele><time>2026-04-25T09:49:25.001Z</time></trkpt><trkpt lat="46.066896733073804" lon="12.563825566128589"><ele>180.0</ele><time>2026-04-25T09:49:31.001Z</time></trkpt><trkpt lat="46.06695277785219" lon="12.563764824603085"><ele>181.0</ele><time>2026-04-25T09:49:37.001Z</time></trkpt><trkpt lat="46.06696826446456" lon="12.563648781610594"><ele>182.0</ele><time>2026-04-25T09:49:44.001Z</time></trkpt><trkpt lat="46.06694876320613" lon="12.56355039007754"><ele>183.0</ele><time>2026-04-25T09:49:50.001Z</time></trkpt><trkpt lat="46.06692844734288" lon="12.563463608861216"><ele>184.0</ele><time>2026-04-25T09:49:54.001Z</time></trkpt><trkpt lat="46.06690111826041" lon="12.56337303120016"><ele>185.0</ele><time>2026-04-25T09:50:01.001Z</time></trkpt><trkpt lat="46.066888645222406" lon="12.56328048822615"><ele>186.0</ele><time>2026-04-25T09:50:08.001Z</time></trkpt><trkpt lat="46.0668837299358" lon="12.56318213354371"><ele>187.0</ele><time>2026-04-25T09:50:15.002Z</time></trkpt><trkpt lat="46.06689446692288" lon="12.563082576746742"><ele>187.0</ele><time>2026-04-25T09:50:21.002Z</time></trkpt><trkpt lat="46.06689141880836" lon="12.562985938143077"><ele>187.0</ele><time>2026-04-25T09:50:29.001Z</time></trkpt><trkpt lat="46.06690509307291" lon="12.562880873206213"><ele>187.0</ele><time>2026-04-25T09:50:36.001Z</time></trkpt><trkpt lat="46.06689979849598" lon="12.562782493377057"><ele>187.0</ele><time>2026-04-25T09:50:42.001Z</time></trkpt><trkpt lat="46.0668952555456" lon="12.562683281023022"><ele>187.0</ele><time>2026-04-25T09:50:49.001Z</time></trkpt><trkpt lat="46.06689169850004" lon="12.562591532319365"><ele>187.0</ele><time>2026-04-25T09:50:55.001Z</time></trkpt><trkpt lat="46.06695545758515" lon="12.562548954671051"><ele>187.0</ele><time>2026-04-25T09:51:05.001Z</time></trkpt><trkpt lat="46.067003991380844" lon="12.562485323882813"><ele>187.85714285714286</ele><time>2026-04-25T09:51:12.001Z</time></trkpt><trkpt lat="46.06705240781169" lon="12.562417438048689"><ele>188.71428571428572</ele><time>2026-04-25T09:51:18.001Z</time></trkpt><trkpt lat="46.067079798401515" lon="12.562328367597456"><ele>189.57142857142858</ele><time>2026-04-25T09:51:25.001Z</time></trkpt><trkpt lat="46.067109020736645" lon="12.562235617447671"><ele>190.42857142857144</ele><time>2026-04-25T09:51:33.001Z</time></trkpt><trkpt lat="46.067169252385064" lon="12.562170089942205"><ele>191.28571428571428</ele><time>2026-04-25T09:51:44.001Z</time></trkpt><trkpt lat="46.06722532259925" lon="12.562114716069988"><ele>192.14285714285717</ele><time>2026-04-25T09:51:52.001Z</time></trkpt><trkpt lat="46.067272068995635" lon="12.562040338682504"><ele>193.0</ele><time>2026-04-25T09:52:00.001Z</time></trkpt><trkpt lat="46.067280823060564" lon="12.561950325427054"><ele>193.57142857142858</ele><time>2026-04-25T09:52:08.001Z</time></trkpt><trkpt lat="46.067314814391445" lon="12.561870231774456"><ele>194.14285714285714</ele><time>2026-04-25T09:52:16.001Z</time></trkpt><trkpt lat="46.06734381834274" lon="12.561765665034969"><ele>194.71428571428572</ele><time>2026-04-25T09:52:24.001Z</time></trkpt><trkpt lat="46.067361716476" lon="12.561677873232316"><ele>195.28571428571428</ele><time>2026-04-25T09:52:31.001Z</time></trkpt><trkpt lat="46.06739732386222" lon="12.56158986930532"><ele>195.85714285714286</ele><time>2026-04-25T09:52:37.001Z</time></trkpt><trkpt lat="46.067422483532226" lon="12.561503441787229"><ele>196.42857142857144</ele><time>2026-04-25T09:52:43Z</time></trkpt><trkpt lat="46.06741485195208" lon="12.561396583173094"><ele>197.0</ele><time>2026-04-25T09:52:49Z</time></trkpt><trkpt lat="46.06741586850198" lon="12.561300348685135"><ele>197.0</ele><time>2026-04-25T09:52:54Z</time></trkpt><trkpt lat="46.06744031391253" lon="12.561213244714411"><ele>197.0</ele><time>2026-04-25T09:52:59Z</time></trkpt><trkpt lat="46.06744637929498" lon="12.561121146142392"><ele>197.0</ele><time>2026-04-25T09:53:05.001Z</time></trkpt><trkpt lat="46.067456372090916" lon="12.561026520852677"><ele>197.0</ele><time>2026-04-25T09:53:13.001Z</time></trkpt><trkpt lat="46.06746880428033" lon="12.560927805834007"><ele>197.0</ele><time>2026-04-25T09:53:21.001Z</time></trkpt><trkpt lat="46.06749766826603" lon="12.560845358197684"><ele>197.0</ele><time>2026-04-25T09:53:26.001Z</time></trkpt><trkpt lat="46.067524791539796" lon="12.560762838131504"><ele>197.0</ele><time>2026-04-25T09:53:32.001Z</time></trkpt><trkpt lat="46.0675597066458" lon="12.56067925386182"><ele>199.71428571428572</ele><time>2026-04-25T09:53:38.001Z</time></trkpt><trkpt lat="46.06762068672476" lon="12.560610848578976"><ele>202.42857142857144</ele><time>2026-04-25T09:53:49.001Z</time></trkpt><trkpt lat="46.0676761586192" lon="12.560558845618802"><ele>205.14285714285714</ele><time>2026-04-25T09:53:55.001Z</time></trkpt><trkpt lat="46.06769882640396" lon="12.560460272575934"><ele>207.85714285714286</ele><time>2026-04-25T09:54:02.001Z</time></trkpt><trkpt lat="46.067672108280675" lon="12.560351707151163"><ele>210.57142857142856</ele><time>2026-04-25T09:54:08.001Z</time></trkpt><trkpt lat="46.06761072488819" lon="12.560292738315155"><ele>213.28571428571428</ele><time>2026-04-25T09:54:14.001Z</time></trkpt><trkpt lat="46.06754385193883" lon="12.560239434687755"><ele>216.0</ele><time>2026-04-25T09:54:19.001Z</time></trkpt><trkpt lat="46.067480550996564" lon="12.560195734696729"><ele>217.14285714285714</ele><time>2026-04-25T09:54:24.001Z</time></trkpt><trkpt lat="46.06747362877144" lon="12.56010287131159"><ele>218.28571428571428</ele><time>2026-04-25T09:54:29.001Z</time></trkpt><trkpt lat="46.06752879385719" lon="12.560037235330135"><ele>219.42857142857144</ele><time>2026-04-25T09:54:35Z</time></trkpt><trkpt lat="46.06756756843914" lon="12.559955898796709"><ele>220.57142857142856</ele><time>2026-04-25T09:54:40Z</time></trkpt><trkpt lat="46.06756762428654" lon="12.559860385548184"><ele>221.71428571428572</ele><time>2026-04-25T09:54:45Z</time></trkpt><trkpt lat="46.06754572794555" lon="12.559757855877642"><ele>222.85714285714286</ele><time>2026-04-25T09:54:51Z</time></trkpt><trkpt lat="46.06751095563692" lon="12.559661221265134"><ele>224.0</ele><time>2026-04-25T09:54:57Z</time></trkpt><trkpt lat="46.06746036135734" lon="12.559579199076158"><ele>222.28571428571428</ele><time>2026-04-25T09:55:01Z</time></trkpt><trkpt lat="46.06743126732253" lon="12.55949036962474"><ele>220.57142857142856</ele><time>2026-04-25T09:55:05Z</time></trkpt><trkpt lat="46.067376579653136" lon="12.55943900436481"><ele>218.85714285714286</ele><time>2026-04-25T09:55:09Z</time></trkpt><trkpt lat="46.06731590544939" lon="12.559388097261927"><ele>217.14285714285714</ele><time>2026-04-25T09:55:15Z</time></trkpt><trkpt lat="46.0672437998584" lon="12.559362301205985"><ele>215.42857142857142</ele><time>2026-04-25T09:55:22Z</time></trkpt><trkpt lat="46.06718210498173" lon="12.559337661090185"><ele>213.71428571428572</ele><time>2026-04-25T09:55:28.001Z</time></trkpt><trkpt lat="46.06712364706886" lon="12.559303980390697"><ele>212.0</ele><time>2026-04-25T09:55:35.001Z</time></trkpt><trkpt lat="46.0670556521004" lon="12.559272287070852"><ele>212.00000000000003</ele><time>2026-04-25T09:55:54.001Z</time></trkpt><trkpt lat="46.06699588251876" lon="12.559305780289833"><ele>212.0</ele><time>2026-04-25T09:56:11.001Z</time></trkpt><trkpt lat="46.06693276778527" lon="12.559292185433376"><ele>212.0</ele><time>2026-04-25T09:56:18.001Z</time></trkpt><trkpt lat="46.06686647582397" lon="12.55928788345508"><ele>212.0</ele><time>2026-04-25T09:57:48Z</time></trkpt><trkpt lat="46.06679094528687" lon="12.559255890020635"><ele>212.00000000000003</ele><time>2026-04-25T09:57:55.001Z</time></trkpt><trkpt lat="46.066645705178054" lon="12.559201589438263"><ele>212.0</ele><time>2026-04-25T09:58:08.001Z</time></trkpt><trkpt lat="46.066579326606785" lon="12.55917041742008"><ele>210.14285714285714</ele><time>2026-04-25T09:58:13.001Z</time></trkpt><trkpt lat="46.066527354161295" lon="12.559119093452006"><ele>208.28571428571428</ele><time>2026-04-25T09:58:19.001Z</time></trkpt><trkpt lat="46.066489666643776" lon="12.559030687930031"><ele>206.42857142857142</ele><time>2026-04-25T09:58:26.001Z</time></trkpt><trkpt lat="46.06642645542147" lon="12.558963758091345"><ele>204.57142857142856</ele><time>2026-04-25T09:58:30.001Z</time></trkpt><trkpt lat="46.066354107770415" lon="12.558926624219142"><ele>202.71428571428572</ele><time>2026-04-25T09:58:35.001Z</time></trkpt><trkpt lat="46.066288426157236" lon="12.558944894187734"><ele>200.85714285714283</ele><time>2026-04-25T09:58:39.001Z</time></trkpt><trkpt lat="46.06622055913632" lon="12.558947358343467"><ele>199.0</ele><time>2026-04-25T09:58:43.001Z</time></trkpt><trkpt lat="46.06616459910239" lon="12.558898602383849"><ele>198.99999999999997</ele><time>2026-04-25T09:58:49Z</time></trkpt><trkpt lat="46.06609816065418" lon="12.558857656971034"><ele>199.0</ele><time>2026-04-25T09:58:55Z</time></trkpt><trkpt lat="46.066045653157445" lon="12.558780455456844"><ele>199.0</ele><time>2026-04-25T09:59:00Z</time></trkpt><trkpt lat="46.06598486127624" lon="12.558712398974151"><ele>199.0</ele><time>2026-04-25T09:59:05Z</time></trkpt><trkpt lat="46.06592020091509" lon="12.558707281001036"><ele>199.0</ele><time>2026-04-25T09:59:09Z</time></trkpt><trkpt lat="46.06586745925294" lon="12.55877385410226"><ele>198.99999999999997</ele><time>2026-04-25T09:59:13Z</time></trkpt><trkpt lat="46.06579841235662" lon="12.558749217775546"><ele>199.0</ele><time>2026-04-25T09:59:18Z</time></trkpt><trkpt lat="46.0658033397997" lon="12.558656333251264"><ele>199.85714285714283</ele><time>2026-04-25T09:59:21Z</time></trkpt><trkpt lat="46.06583443717303" lon="12.558562411692282"><ele>200.71428571428572</ele><time>2026-04-25T09:59:25Z</time></trkpt><trkpt lat="46.06582055473173" lon="12.558451032910826"><ele>201.57142857142856</ele><time>2026-04-25T09:59:30Z</time></trkpt><trkpt lat="46.065835204333105" lon="12.558354071418103"><ele>202.42857142857142</ele><time>2026-04-25T09:59:34Z</time></trkpt><trkpt lat="46.06589805338391" lon="12.558327388574465"><ele>203.28571428571428</ele><time>2026-04-25T09:59:39Z</time></trkpt><trkpt lat="46.065970192046336" lon="12.558353851101446"><ele>204.14285714285714</ele><time>2026-04-25T09:59:43Z</time></trkpt><trkpt lat="46.06603414455051" lon="12.558343677147011"><ele>205.0</ele><time>2026-04-25T09:59:47Z</time></trkpt><trkpt lat="46.06609651357151" lon="12.558325567476281"><ele>205.0</ele><time>2026-04-25T09:59:51Z</time></trkpt><trkpt lat="46.066141666787026" lon="12.558241687890217"><ele>205.0</ele><time>2026-04-25T09:59:56Z</time></trkpt><trkpt lat="46.066113434866416" lon="12.558149531348137"><ele>205.0</ele><time>2026-04-25T10:00:00Z</time></trkpt><trkpt lat="46.06608135669357" lon="12.55805361538648"><ele>205.0</ele><time>2026-04-25T10:00:05Z</time></trkpt><trkpt lat="46.06600969189333" lon="12.558013781167782"><ele>205.0</ele><time>2026-04-25T10:00:09Z</time></trkpt><trkpt lat="46.06595018945313" lon="12.557983235042002"><ele>205.0</ele><time>2026-04-25T10:00:17Z</time></trkpt><trkpt lat="46.06595877173706" lon="12.557888932315375"><ele>205.0</ele><time>2026-04-25T10:00:28Z</time></trkpt><trkpt lat="46.06597758283029" lon="12.55779758725898"><ele>205.14285714285714</ele><time>2026-04-25T10:00:33.001Z</time></trkpt><trkpt lat="46.065918045678764" lon="12.557757692624634"><ele>205.28571428571428</ele><time>2026-04-25T10:00:45.001Z</time></trkpt><trkpt lat="46.06586167408663" lon="12.55768765528032"><ele>205.42857142857142</ele><time>2026-04-25T10:00:55.999Z</time></trkpt><trkpt lat="46.065806846240974" lon="12.557639794475417"><ele>205.57142857142856</ele><time>2026-04-25T10:01:01.999Z</time></trkpt><trkpt lat="46.065746910601874" lon="12.557580273466895"><ele>205.71428571428572</ele><time>2026-04-25T10:01:06.999Z</time></trkpt><trkpt lat="46.06571972166958" lon="12.557497297814308"><ele>205.85714285714283</ele><time>2026-04-25T10:01:15Z</time></trkpt><trkpt lat="46.06578599802659" lon="12.55744878275385"><ele>206.0</ele><time>2026-04-25T10:01:24Z</time></trkpt><trkpt lat="46.065836107894235" lon="12.557390495275937"><ele>205.99999999999997</ele><time>2026-04-25T10:01:33Z</time></trkpt><trkpt lat="46.06581407109744" lon="12.557302990974158"><ele>206.0</ele><time>2026-04-25T10:01:41Z</time></trkpt><trkpt lat="46.06580522080966" lon="12.55720787457537"><ele>206.0</ele><time>2026-04-25T10:01:49Z</time></trkpt><trkpt lat="46.065810848841295" lon="12.557110194383114"><ele>206.0</ele><time>2026-04-25T10:02:03Z</time></trkpt><trkpt lat="46.06577908235385" lon="12.55701859455481"><ele>206.0</ele><time>2026-04-25T10:02:10Z</time></trkpt><trkpt lat="46.065717962588714" lon="12.556955470208699"><ele>205.99999999999997</ele><time>2026-04-25T10:02:16Z</time></trkpt><trkpt lat="46.06565538696491" lon="12.556913585211374"><ele>206.0</ele><time>2026-04-25T10:02:22Z</time></trkpt><trkpt lat="46.06558503552863" lon="12.55691318411573"><ele>204.57142857142856</ele><time>2026-04-25T10:02:30.001Z</time></trkpt><trkpt lat="46.06552011520907" lon="12.556930693173246"><ele>203.14285714285714</ele><time>2026-04-25T10:02:39.001Z</time></trkpt><trkpt lat="46.06545244569662" lon="12.556920827848725"><ele>201.71428571428572</ele><time>2026-04-25T10:02:46.001Z</time></trkpt><trkpt lat="46.06540752067627" lon="12.556993428383958"><ele>200.28571428571428</ele><time>2026-04-25T10:02:52.001Z</time></trkpt><trkpt lat="46.065422980103534" lon="12.557088309165989"><ele>198.85714285714286</ele><time>2026-04-25T10:02:59.999Z</time></trkpt><trkpt lat="46.065496401740866" lon="12.557105834276589"><ele>197.42857142857142</ele><time>2026-04-25T10:03:12.999Z</time></trkpt><trkpt lat="46.065560692605466" lon="12.557097384526507"><ele>196.0</ele><time>2026-04-25T10:03:24Z</time></trkpt><trkpt lat="46.06562261994349" lon="12.557149009336639"><ele>196.0</ele><time>2026-04-25T10:03:32Z</time></trkpt><trkpt lat="46.065658239391404" lon="12.55723475245765"><ele>196.0</ele><time>2026-04-25T10:03:57Z</time></trkpt><trkpt lat="46.06559663892189" lon="12.557256097441389"><ele>196.0</ele><time>2026-04-25T10:04:21.001Z</time></trkpt><trkpt lat="46.06553409208337" lon="12.557270274258059"><ele>196.0</ele><time>2026-04-25T10:04:25.001Z</time></trkpt><trkpt lat="46.065482071143954" lon="12.557328294916921"><ele>196.0</ele><time>2026-04-25T10:04:32.001Z</time></trkpt><trkpt lat="46.06545171235221" lon="12.55742117658638"><ele>196.0</ele><time>2026-04-25T10:04:40.001Z</time></trkpt><trkpt lat="46.06542345706737" lon="12.557507133477364"><ele>196.0</ele><time>2026-04-25T10:04:44.001Z</time></trkpt><trkpt lat="46.065481969995254" lon="12.557591542673372"><ele>196.0</ele><time>2026-04-25T10:05:06Z</time></trkpt><trkpt lat="46.06546972531015" lon="12.557707616419863"><ele>196.0</ele><time>2026-04-25T10:05:12Z</time></trkpt><trkpt lat="46.06548075695334" lon="12.55782826491729"><ele>196.0</ele><time>2026-04-25T10:05:16Z</time></trkpt><trkpt lat="46.065507540140814" lon="12.5579223352131"><ele>196.0</ele><time>2026-04-25T10:05:23Z</time></trkpt><trkpt lat="46.065527847820434" lon="12.55802224700369"><ele>196.0</ele><time>2026-04-25T10:05:31Z</time></trkpt><trkpt lat="46.065570434085494" lon="12.558105499578106"><ele>196.0</ele><time>2026-04-25T10:05:36Z</time></trkpt><trkpt lat="46.06562585343223" lon="12.558162372233353"><ele>196.0</ele><time>2026-04-25T10:05:43Z</time></trkpt><trkpt lat="46.06569315483288" lon="12.558160033372172"><ele>196.0</ele><time>2026-04-25T10:05:47Z</time></trkpt><trkpt lat="46.06566448105069" lon="12.558246563901468"><ele>196.0</ele><time>2026-04-25T10:05:54Z</time></trkpt><trkpt lat="46.065590889315416" lon="12.558201036469448"><ele>196.0</ele><time>2026-04-25T10:06:15.001Z</time></trkpt><trkpt lat="46.065526802293064" lon="12.558171668674607"><ele>196.0</ele><time>2026-04-25T10:06:22.001Z</time></trkpt><trkpt lat="46.065471741305736" lon="12.558092126187912"><ele>196.0</ele><time>2026-04-25T10:06:26.001Z</time></trkpt><trkpt lat="46.0654497748003" lon="12.55798401279272"><ele>196.0</ele><time>2026-04-25T10:06:32.001Z</time></trkpt><trkpt lat="46.065407716361555" lon="12.557893712636293"><ele>196.0</ele><time>2026-04-25T10:06:37.001Z</time></trkpt><trkpt lat="46.06536714199236" lon="12.55780193013262"><ele>196.0</ele><time>2026-04-25T10:06:42.001Z</time></trkpt><trkpt lat="46.065310193479554" lon="12.557748690893572"><ele>196.0</ele><time>2026-04-25T10:06:46.001Z</time></trkpt><trkpt lat="46.06524699667397" lon="12.557763192652436"><ele>196.0</ele><time>2026-04-25T10:06:50.001Z</time></trkpt><trkpt lat="46.06519664856947" lon="12.55769464465454"><ele>196.0</ele><time>2026-04-25T10:06:54.001Z</time></trkpt><trkpt lat="46.06516998820417" lon="12.557590037308954"><ele>196.0</ele><time>2026-04-25T10:06:59.001Z</time></trkpt><trkpt lat="46.065166772723764" lon="12.557496364956725"><ele>196.0</ele><time>2026-04-25T10:07:03.001Z</time></trkpt><trkpt lat="46.065145216720516" lon="12.557402501978816"><ele>196.0</ele><time>2026-04-25T10:07:08.001Z</time></trkpt><trkpt lat="46.06521547200971" lon="12.557363583952249"><ele>196.0</ele><time>2026-04-25T10:07:15Z</time></trkpt><trkpt lat="46.06528144686454" lon="12.557346108552544"><ele>196.0</ele><time>2026-04-25T10:07:19Z</time></trkpt><trkpt lat="46.0652980105136" lon="12.557257925469964"><ele>196.0</ele><time>2026-04-25T10:07:24Z</time></trkpt><trkpt lat="46.06533950679492" lon="12.557177984242701"><ele>196.0</ele><time>2026-04-25T10:07:30Z</time></trkpt><trkpt lat="46.06527141254641" lon="12.557119363802588"><ele>196.0</ele><time>2026-04-25T10:07:38Z</time></trkpt><trkpt lat="46.065208878635154" lon="12.557149263820756"><ele>196.0</ele><time>2026-04-25T10:07:42Z</time></trkpt><trkpt lat="46.06518635290213" lon="12.557237631094175"><ele>196.0</ele><time>2026-04-25T10:07:51Z</time></trkpt><trkpt lat="46.06517659188355" lon="12.557139007442444"><ele>196.0</ele><time>2026-04-25T10:07:57Z</time></trkpt><trkpt lat="46.06515953898061" lon="12.55704282047815"><ele>196.0</ele><time>2026-04-25T10:08:03Z</time></trkpt><trkpt lat="46.06521756336237" lon="12.556976640305717"><ele>196.0</ele><time>2026-04-25T10:08:07Z</time></trkpt><trkpt lat="46.065273836515885" lon="12.556934486828592"><ele>196.0</ele><time>2026-04-25T10:08:12Z</time></trkpt><trkpt lat="46.065247184065974" lon="12.556830737511593"><ele>196.0</ele><time>2026-04-25T10:08:20.001Z</time></trkpt><trkpt lat="46.06520101689045" lon="12.556753078867104"><ele>196.0</ele><time>2026-04-25T10:08:26.001Z</time></trkpt><trkpt lat="46.06518794041527" lon="12.556664190357811"><ele>196.0</ele><time>2026-04-25T10:08:37.001Z</time></trkpt><trkpt lat="46.0651608021484" lon="12.556565455148748"><ele>195.0</ele><time>2026-04-25T10:08:44.001Z</time></trkpt><trkpt lat="46.06511587311173" lon="12.556476334519262"><ele>194.0</ele><time>2026-04-25T10:08:51.001Z</time></trkpt><trkpt lat="46.06509178839774" lon="12.556382744550605"><ele>193.0</ele><time>2026-04-25T10:08:56.001Z</time></trkpt><trkpt lat="46.065051871864625" lon="12.556305140298049"><ele>192.0</ele><time>2026-04-25T10:09:01.001Z</time></trkpt><trkpt lat="46.0650802099848" lon="12.556208013753404"><ele>191.0</ele><time>2026-04-25T10:09:11.001Z</time></trkpt><trkpt lat="46.06514849705789" lon="12.556191643668177"><ele>190.0</ele><time>2026-04-25T10:09:23Z</time></trkpt><trkpt lat="46.06508710416058" lon="12.556141641728836"><ele>189.0</ele><time>2026-04-25T10:09:41Z</time></trkpt><trkpt lat="46.06509232431915" lon="12.55604257264874"><ele>188.42857142857142</ele><time>2026-04-25T10:09:50Z</time></trkpt><trkpt lat="46.06512405393336" lon="12.555957229770637"><ele>187.85714285714286</ele><time>2026-04-25T10:09:58Z</time></trkpt><trkpt lat="46.065185598493066" lon="12.555909640498383"><ele>187.28571428571428</ele><time>2026-04-25T10:10:04Z</time></trkpt><trkpt lat="46.06520193544799" lon="12.555817231936752"><ele>186.71428571428572</ele><time>2026-04-25T10:10:11Z</time></trkpt><trkpt lat="46.06517447023461" lon="12.555726838604537"><ele>186.14285714285714</ele><time>2026-04-25T10:10:17Z</time></trkpt><trkpt lat="46.065106406559636" lon="12.555727674601739"><ele>185.57142857142856</ele><time>2026-04-25T10:10:30.001Z</time></trkpt><trkpt lat="46.06507097161669" lon="12.555645272836097"><ele>185.0</ele><time>2026-04-25T10:11:04.001Z</time></trkpt><trkpt lat="46.065020311024355" lon="12.555568000534363"><ele>184.99999999999997</ele><time>2026-04-25T10:11:13.001Z</time></trkpt><trkpt lat="46.06496503261646" lon="12.55550241072089"><ele>185.0</ele><time>2026-04-25T10:11:21.001Z</time></trkpt><trkpt lat="46.06491798264077" lon="12.55543564006852"><ele>185.0</ele><time>2026-04-25T10:11:26Z</time></trkpt><trkpt lat="46.06489670337666" lon="12.555342604206391"><ele>185.0</ele><time>2026-04-25T10:11:33Z</time></trkpt><trkpt lat="46.064835447200004" lon="12.555299815597929"><ele>185.0</ele><time>2026-04-25T10:12:07.001Z</time></trkpt><trkpt lat="46.064783943556215" lon="12.555221852070725"><ele>184.99999999999997</ele><time>2026-04-25T10:12:15.001Z</time></trkpt><trkpt lat="46.06476341637668" lon="12.55513199563954"><ele>185.0</ele><time>2026-04-25T10:12:25.001Z</time></trkpt><trkpt lat="46.06470662471016" lon="12.5550871852381"><ele>183.42857142857142</ele><time>2026-04-25T10:12:33.001Z</time></trkpt><trkpt lat="46.06463836912079" lon="12.555095965159135"><ele>181.85714285714286</ele><time>2026-04-25T10:12:42.001Z</time></trkpt><trkpt lat="46.064571452769925" lon="12.555058531742564"><ele>180.28571428571428</ele><time>2026-04-25T10:12:57.001Z</time></trkpt><trkpt lat="46.06453986407753" lon="12.554971259320268"><ele>178.71428571428572</ele><time>2026-04-25T10:13:03.001Z</time></trkpt><trkpt lat="46.06449780020387" lon="12.55490018851285"><ele>177.14285714285714</ele><time>2026-04-25T10:13:18.001Z</time></trkpt><trkpt lat="46.06445786708792" lon="12.554828502593892"><ele>175.57142857142856</ele><time>2026-04-25T10:13:22.001Z</time></trkpt><trkpt lat="46.064435701150025" lon="12.554728592104722"><ele>174.0</ele><time>2026-04-25T10:13:26.001Z</time></trkpt><trkpt lat="46.06443516632222" lon="12.55461913973644"><ele>173.57142857142856</ele><time>2026-04-25T10:13:31.001Z</time></trkpt><trkpt lat="46.06447850306511" lon="12.554528270545012"><ele>173.14285714285714</ele><time>2026-04-25T10:13:36Z</time></trkpt><trkpt lat="46.06445800337375" lon="12.554429257358874"><ele>172.71428571428572</ele><time>2026-04-25T10:13:52Z</time></trkpt><trkpt lat="46.06442991606087" lon="12.554326417887722"><ele>172.28571428571428</ele><time>2026-04-25T10:13:59Z</time></trkpt><trkpt lat="46.064400635839064" lon="12.554236142832115"><ele>171.85714285714286</ele><time>2026-04-25T10:14:05Z</time></trkpt><trkpt lat="46.06433681732252" lon="12.554198164627241"><ele>171.42857142857142</ele><time>2026-04-25T10:14:18.001Z</time></trkpt><trkpt lat="46.06427608321689" lon="12.554168998845823"><ele>171.0</ele><time>2026-04-25T10:14:22.001Z</time></trkpt><trkpt lat="46.06423684764557" lon="12.554097787978806"><ele>170.99999999999997</ele><time>2026-04-25T10:14:26.001Z</time></trkpt><trkpt lat="46.064274657138945" lon="12.554024408495208"><ele>171.0</ele><time>2026-04-25T10:14:34.001Z</time></trkpt><trkpt lat="46.064337562571495" lon="12.554029903851259"><ele>171.0</ele><time>2026-04-25T10:14:38.001Z</time></trkpt><trkpt lat="46.06439059251378" lon="12.553965628074362"><ele>171.0</ele><time>2026-04-25T10:14:44.001Z</time></trkpt><trkpt lat="46.064330059118916" lon="12.553908244199729"><ele>171.0</ele><time>2026-04-25T10:14:49.001Z</time></trkpt><trkpt lat="46.06426930076679" lon="12.55387445132493"><ele>170.99999999999997</ele><time>2026-04-25T10:14:55.001Z</time></trkpt><trkpt lat="46.06420991343264" lon="12.553833534355913"><ele>171.0</ele><time>2026-04-25T10:15:06.001Z</time></trkpt><trkpt lat="46.06413541713525" lon="12.553828665120859"><ele>170.42857142857142</ele><time>2026-04-25T10:15:32.001Z</time></trkpt><trkpt lat="46.06407175561131" lon="12.55381389182986"><ele>169.85714285714286</ele><time>2026-04-25T10:15:39Z</time></trkpt><trkpt lat="46.064000125336776" lon="12.553843065054936"><ele>169.28571428571428</ele><time>2026-04-25T10:15:46Z</time></trkpt><trkpt lat="46.06394665030705" lon="12.553770963376214"><ele>168.71428571428572</ele><time>2026-04-25T10:15:52Z</time></trkpt><trkpt lat="46.06388226528191" lon="12.553745619702628"><ele>168.14285714285714</ele><time>2026-04-25T10:15:58Z</time></trkpt><trkpt lat="46.06381870823873" lon="12.55377081073188"><ele>167.57142857142856</ele><time>2026-04-25T10:16:05Z</time></trkpt><trkpt lat="46.06375211735151" lon="12.553788981386933"><ele>167.0</ele><time>2026-04-25T10:16:11Z</time></trkpt><trkpt lat="46.06369061740134" lon="12.553731959115142"><ele>166.71428571428572</ele><time>2026-04-25T10:16:18Z</time></trkpt><trkpt lat="46.06364335726943" lon="12.553650121991222"><ele>166.42857142857144</ele><time>2026-04-25T10:16:24Z</time></trkpt><trkpt lat="46.06358674225709" lon="12.553596081025393"><ele>166.14285714285717</ele><time>2026-04-25T10:16:30.001Z</time></trkpt><trkpt lat="46.06351634552674" lon="12.553567460241986"><ele>165.85714285714286</ele><time>2026-04-25T10:16:37.001Z</time></trkpt><trkpt lat="46.06344426976468" lon="12.553588435423352"><ele>165.57142857142858</ele><time>2026-04-25T10:16:44.001Z</time></trkpt><trkpt lat="46.0633798611193" lon="12.55359119829566"><ele>165.2857142857143</ele><time>2026-04-25T10:16:52.001Z</time></trkpt><trkpt lat="46.063364113422146" lon="12.553483625808505"><ele>165.0</ele><time>2026-04-25T10:16:58.001Z</time></trkpt><trkpt lat="46.06337148011588" lon="12.553390934098973"><ele>165.00000000000003</ele><time>2026-04-25T10:17:04.001Z</time></trkpt><trkpt lat="46.06334625336055" lon="12.55329289218231"><ele>165.0</ele><time>2026-04-25T10:17:09.001Z</time></trkpt><trkpt lat="46.0633031586294" lon="12.553211547926159"><ele>165.0</ele><time>2026-04-25T10:17:16.001Z</time></trkpt><trkpt lat="46.06324662623113" lon="12.553146246554437"><ele>165.0</ele><time>2026-04-25T10:17:21.001Z</time></trkpt><trkpt lat="46.0632163355755" lon="12.553047295509911"><ele>165.0</ele><time>2026-04-25T10:17:26.001Z</time></trkpt><trkpt lat="46.063153502559075" lon="12.55299485776419"><ele>165.00000000000003</ele><time>2026-04-25T10:17:32.001Z</time></trkpt><trkpt lat="46.06316024358518" lon="12.552900772481555"><ele>165.0</ele><time>2026-04-25T10:17:38.001Z</time></trkpt><trkpt lat="46.063143372442894" lon="12.552809281274463"><ele>163.71428571428572</ele><time>2026-04-25T10:17:45Z</time></trkpt><trkpt lat="46.06310149311294" lon="12.552740749730436"><ele>162.42857142857144</ele><time>2026-04-25T10:17:51Z</time></trkpt><trkpt lat="46.06306993873414" lon="12.55265943333778"><ele>161.14285714285717</ele><time>2026-04-25T10:17:57Z</time></trkpt><trkpt lat="46.06304190338434" lon="12.55257138282134"><ele>159.85714285714286</ele><time>2026-04-25T10:18:02Z</time></trkpt><trkpt lat="46.06297963729819" lon="12.55252553910144"><ele>158.57142857142856</ele><time>2026-04-25T10:18:19Z</time></trkpt><trkpt lat="46.06293900657047" lon="12.55244729310571"><ele>157.2857142857143</ele><time>2026-04-25T10:18:29Z</time></trkpt><trkpt lat="46.062922694147474" lon="12.552357282282061"><ele>156.0</ele><time>2026-04-25T10:18:36Z</time></trkpt><trkpt lat="46.062883598282475" lon="12.552265906195386"><ele>156.0</ele><time>2026-04-25T10:18:41Z</time></trkpt><trkpt lat="46.06284081221137" lon="12.552194761664332"><ele>156.0</ele><time>2026-04-25T10:18:47.001Z</time></trkpt><trkpt lat="46.06279267226196" lon="12.55212816128125"><ele>156.0</ele><time>2026-04-25T10:18:52.001Z</time></trkpt><trkpt lat="46.062736281750155" lon="12.552076422122786"><ele>156.0</ele><time>2026-04-25T10:18:59.001Z</time></trkpt><trkpt lat="46.062681689271585" lon="12.552006374577537"><ele>156.0</ele><time>2026-04-25T10:19:04.001Z</time></trkpt><trkpt lat="46.06262114386201" lon="12.551953940933602"><ele>156.0</ele><time>2026-04-25T10:19:10.001Z</time></trkpt><trkpt lat="46.062554813369665" lon="12.551947270080529"><ele>156.0</ele><time>2026-04-25T10:19:15.001Z</time></trkpt><trkpt lat="46.06249172567587" lon="12.551924854356571"><ele>155.57142857142858</ele><time>2026-04-25T10:19:22.001Z</time></trkpt><trkpt lat="46.062434056021665" lon="12.551879448099164"><ele>155.14285714285714</ele><time>2026-04-25T10:19:27.001Z</time></trkpt><trkpt lat="46.06242389930938" lon="12.551788083690608"><ele>154.71428571428572</ele><time>2026-04-25T10:19:31.001Z</time></trkpt><trkpt lat="46.06241846408366" lon="12.55169700676276"><ele>154.28571428571428</ele><time>2026-04-25T10:19:36.001Z</time></trkpt><trkpt lat="46.06237248218241" lon="12.551634234630408"><ele>153.85714285714286</ele><time>2026-04-25T10:19:41.001Z</time></trkpt><trkpt lat="46.06231783511606" lon="12.551588609159312"><ele>153.42857142857142</ele><time>2026-04-25T10:19:50Z</time></trkpt><trkpt lat="46.06226283307195" lon="12.551531464953287"><ele>153.0</ele><time>2026-04-25T10:19:56Z</time></trkpt><trkpt lat="46.06219650896394" lon="12.551496060787208"><ele>153.0</ele><time>2026-04-25T10:20:03Z</time></trkpt><trkpt lat="46.062125945247274" lon="12.551479583211844"><ele>153.0</ele><time>2026-04-25T10:20:07Z</time></trkpt><trkpt lat="46.06207404369645" lon="12.551549959288668"><ele>153.0</ele><time>2026-04-25T10:20:11Z</time></trkpt><trkpt lat="46.062042987550406" lon="12.551629029838093"><ele>153.0</ele><time>2026-04-25T10:20:15Z</time></trkpt><trkpt lat="46.06201861120219" lon="12.551736939971276"><ele>153.0</ele><time>2026-04-25T10:20:20Z</time></trkpt><trkpt lat="46.0619961961402" lon="12.551827078700015"><ele>153.0</ele><time>2026-04-25T10:20:25Z</time></trkpt><trkpt lat="46.06193741861778" lon="12.551880034657641"><ele>153.0</ele><time>2026-04-25T10:20:31Z</time></trkpt><trkpt lat="46.06189695968992" lon="12.551957202283988"><ele>152.71428571428572</ele><time>2026-04-25T10:20:48Z</time></trkpt><trkpt lat="46.06188312540628" lon="12.552050062888767"><ele>152.42857142857144</ele><time>2026-04-25T10:20:52Z</time></trkpt><trkpt lat="46.061864235819286" lon="12.552154724802378"><ele>152.14285714285717</ele><time>2026-04-25T10:20:57Z</time></trkpt><trkpt lat="46.06183631517018" lon="12.552257395037406"><ele>151.85714285714286</ele><time>2026-04-25T10:21:03Z</time></trkpt><trkpt lat="46.06180597961676" lon="12.55235198939803"><ele>151.57142857142858</ele><time>2026-04-25T10:21:09.001Z</time></trkpt><trkpt lat="46.06180552104765" lon="12.55245572396819"><ele>151.2857142857143</ele><time>2026-04-25T10:21:14.001Z</time></trkpt><trkpt lat="46.06185268416595" lon="12.552524715733357"><ele>151.0</ele><time>2026-04-25T10:21:18.001Z</time></trkpt><trkpt lat="46.061884457095964" lon="12.552609565837079"><ele>151.0</ele><time>2026-04-25T10:21:23.001Z</time></trkpt><trkpt lat="46.0618151325835" lon="12.552644483234893"><ele>151.0</ele><time>2026-04-25T10:21:27.001Z</time></trkpt><trkpt lat="46.06176465830259" lon="12.552567560193824"><ele>151.0</ele><time>2026-04-25T10:21:31.001Z</time></trkpt><trkpt lat="46.06177876698983" lon="12.55246345146304"><ele>151.0</ele><time>2026-04-25T10:21:34.001Z</time></trkpt><trkpt lat="46.06178555222164" lon="12.552350531940323"><ele>151.0</ele><time>2026-04-25T10:21:38.001Z</time></trkpt><trkpt lat="46.06179671841772" lon="12.552240563942233"><ele>151.0</ele><time>2026-04-25T10:21:44.001Z</time></trkpt><trkpt lat="46.061803936086555" lon="12.552132147411914"><ele>151.00000000000003</ele><time>2026-04-25T10:21:51.001Z</time></trkpt><trkpt lat="46.061826076638056" lon="12.552037770121004"><ele>151.0</ele><time>2026-04-25T10:21:55.999Z</time></trkpt><trkpt lat="46.06178642993386" lon="12.551956345005928"><ele>151.0</ele><time>2026-04-25T10:22:00.999Z</time></trkpt><trkpt lat="46.06171558148211" lon="12.551971977903337"><ele>151.0</ele><time>2026-04-25T10:22:05.999Z</time></trkpt><trkpt lat="46.061659680555714" lon="12.552058675675315"><ele>151.0</ele><time>2026-04-25T10:22:10.999Z</time></trkpt><trkpt lat="46.06159426275035" lon="12.552116262333904"><ele>151.00000000000003</ele><time>2026-04-25T10:22:17Z</time></trkpt><trkpt lat="46.06153264355364" lon="12.552163553044478"><ele>151.0</ele><time>2026-04-25T10:22:22Z</time></trkpt><trkpt lat="46.06151023661327" lon="12.552256588835842"><ele>151.00000000000003</ele><time>2026-04-25T10:22:28Z</time></trkpt><trkpt lat="46.06151999300652" lon="12.552358258799932"><ele>151.0</ele><time>2026-04-25T10:22:33Z</time></trkpt><trkpt lat="46.06156431157374" lon="12.552428799657786"><ele>151.0</ele><time>2026-04-25T10:22:38Z</time></trkpt><trkpt lat="46.06159598312998" lon="12.552510779693081"><ele>151.0</ele><time>2026-04-25T10:22:43Z</time></trkpt><trkpt lat="46.06163973222196" lon="12.552576637511667"><ele>151.0</ele><time>2026-04-25T10:22:47Z</time></trkpt><trkpt lat="46.06167936011822" lon="12.552656889127036"><ele>151.00000000000003</ele><time>2026-04-25T10:22:51Z</time></trkpt><trkpt lat="46.061715904401495" lon="12.552731227522633"><ele>151.0</ele><time>2026-04-25T10:22:55Z</time></trkpt><trkpt lat="46.06174650057798" lon="12.55282615874223"><ele>151.00000000000003</ele><time>2026-04-25T10:23:00Z</time></trkpt><trkpt lat="46.06175547883962" lon="12.552930879670088"><ele>151.0</ele><time>2026-04-25T10:23:05Z</time></trkpt><trkpt lat="46.06171386151582" lon="12.553005297473158"><ele>151.0</ele><time>2026-04-25T10:23:09Z</time></trkpt><trkpt lat="46.061682281602245" lon="12.553096769930507"><ele>151.0</ele><time>2026-04-25T10:23:15Z</time></trkpt><trkpt lat="46.061685368082465" lon="12.553202333927153"><ele>151.0</ele><time>2026-04-25T10:23:20Z</time></trkpt><trkpt lat="46.06164818935229" lon="12.553299715233571"><ele>151.00000000000003</ele><time>2026-04-25T10:23:52.001Z</time></trkpt><trkpt lat="46.061602749733694" lon="12.55337630024813"><ele>151.0</ele><time>2026-04-25T10:23:58.001Z</time></trkpt><trkpt lat="46.06156179108252" lon="12.553452969036032"><ele>150.85714285714286</ele><time>2026-04-25T10:24:09.998Z</time></trkpt><trkpt lat="46.06156922254582" lon="12.553557538842504"><ele>150.71428571428572</ele><time>2026-04-25T10:24:18.998Z</time></trkpt><trkpt lat="46.061580498526055" lon="12.553655968442744"><ele>150.57142857142856</ele><time>2026-04-25T10:24:22.999Z</time></trkpt><trkpt lat="46.061577598052345" lon="12.553759797067183"><ele>150.42857142857144</ele><time>2026-04-25T10:24:29.999Z</time></trkpt><trkpt lat="46.06157981062339" lon="12.553865558494703"><ele>150.28571428571428</ele><time>2026-04-25T10:24:34.999Z</time></trkpt><trkpt lat="46.06160348019632" lon="12.553971469469122"><ele>150.14285714285714</ele><time>2026-04-25T10:24:39.999Z</time></trkpt><trkpt lat="46.061644294274615" lon="12.55405443378689"><ele>150.0</ele><time>2026-04-25T10:24:44.999Z</time></trkpt><trkpt lat="46.0616600783287" lon="12.554162761107053"><ele>149.99999999999997</ele><time>2026-04-25T10:24:51Z</time></trkpt><trkpt lat="46.06169026886848" lon="12.55426395862533"><ele>150.0</ele><time>2026-04-25T10:24:56Z</time></trkpt><trkpt lat="46.06176993803687" lon="12.554286596652696"><ele>150.0</ele><time>2026-04-25T10:25:14Z</time></trkpt><trkpt lat="46.06178559597534" lon="12.554377506841996"><ele>150.0</ele><time>2026-04-25T10:25:20Z</time></trkpt><trkpt lat="46.06177815554894" lon="12.554470670157007"><ele>150.0</ele><time>2026-04-25T10:25:24Z</time></trkpt><trkpt lat="46.06178198579347" lon="12.554568534666215"><ele>149.99999999999997</ele><time>2026-04-25T10:25:28Z</time></trkpt><trkpt lat="46.06179264311405" lon="12.554662265176841"><ele>150.0</ele><time>2026-04-25T10:25:35Z</time></trkpt><trkpt lat="46.06176691265488" lon="12.554752047150297"><ele>149.7142857142857</ele><time>2026-04-25T10:25:42Z</time></trkpt><trkpt lat="46.061756066401514" lon="12.55484223477855"><ele>149.42857142857142</ele><time>2026-04-25T10:25:47.001Z</time></trkpt><trkpt lat="46.06175148816313" lon="12.554938670005157"><ele>149.14285714285714</ele><time>2026-04-25T10:25:52.001Z</time></trkpt><trkpt lat="46.06174020774734" lon="12.555034066259562"><ele>148.85714285714283</ele><time>2026-04-25T10:25:57.001Z</time></trkpt><trkpt lat="46.06172429387855" lon="12.555127453941573"><ele>148.57142857142856</ele><time>2026-04-25T10:26:02.001Z</time></trkpt><trkpt lat="46.0617146622482" lon="12.55522057392116"><ele>148.28571428571428</ele><time>2026-04-25T10:26:06.999Z</time></trkpt><trkpt lat="46.06165182241063" lon="12.555194635941998"><ele>148.0</ele><time>2026-04-25T10:26:13.999Z</time></trkpt><trkpt lat="46.06160144549769" lon="12.555264492648115"><ele>147.28571428571428</ele><time>2026-04-25T10:26:22.999Z</time></trkpt><trkpt lat="46.06160691425595" lon="12.555359044040529"><ele>146.57142857142856</ele><time>2026-04-25T10:26:28.999Z</time></trkpt><trkpt lat="46.06159963873608" lon="12.55545249763103"><ele>145.85714285714283</ele><time>2026-04-25T10:26:35Z</time></trkpt><trkpt lat="46.061591159291794" lon="12.555542897405234"><ele>145.14285714285714</ele><time>2026-04-25T10:26:40Z</time></trkpt><trkpt lat="46.06157646740189" lon="12.555650990748555"><ele>144.42857142857142</ele><time>2026-04-25T10:26:47Z</time></trkpt><trkpt lat="46.06157304153003" lon="12.555766305863335"><ele>143.7142857142857</ele><time>2026-04-25T10:26:53Z</time></trkpt><trkpt lat="46.0615396846189" lon="12.55584468823364"><ele>143.0</ele><time>2026-04-25T10:26:58Z</time></trkpt><trkpt lat="46.061519370309234" lon="12.555938292002992"><ele>142.85714285714283</ele><time>2026-04-25T10:27:03Z</time></trkpt><trkpt lat="46.06145737638974" lon="12.555997500507184"><ele>142.71428571428572</ele><time>2026-04-25T10:27:09.001Z</time></trkpt><trkpt lat="46.06143525693543" lon="12.556094129376005"><ele>142.57142857142856</ele><time>2026-04-25T10:27:16.001Z</time></trkpt><trkpt lat="46.06141646682239" lon="12.556186911697367"><ele>142.42857142857142</ele><time>2026-04-25T10:27:22.001Z</time></trkpt><trkpt lat="46.06139354976107" lon="12.556277968542153"><ele>142.28571428571428</ele><time>2026-04-25T10:27:28.001Z</time></trkpt><trkpt lat="46.06133775775821" lon="12.556343124414816"><ele>142.14285714285714</ele><time>2026-04-25T10:27:34.001Z</time></trkpt><trkpt lat="46.06127549468082" lon="12.556360920948372"><ele>142.0</ele><time>2026-04-25T10:27:39.001Z</time></trkpt><trkpt lat="46.06120169525665" lon="12.55633975518019"><ele>142.0</ele><time>2026-04-25T10:27:44.001Z</time></trkpt><trkpt lat="46.06114766219631" lon="12.5562838134204"><ele>142.0</ele><time>2026-04-25T10:27:48.001Z</time></trkpt><trkpt lat="46.06108469322473" lon="12.556264607898303"><ele>142.0</ele><time>2026-04-25T10:27:56.001Z</time></trkpt><trkpt lat="46.06100783868669" lon="12.556236624925901"><ele>142.0</ele><time>2026-04-25T10:28:03.002Z</time></trkpt><trkpt lat="46.06094472232252" lon="12.556233188102288"><ele>142.0</ele><time>2026-04-25T10:28:08.002Z</time></trkpt><trkpt lat="46.060882108144796" lon="12.556279493101805"><ele>142.0</ele><time>2026-04-25T10:28:14Z</time></trkpt><trkpt lat="46.06091357980044" lon="12.556365542959922"><ele>142.0</ele><time>2026-04-25T10:28:19Z</time></trkpt><trkpt lat="46.06098111843243" lon="12.556414652725648"><ele>142.0</ele><time>2026-04-25T10:28:26Z</time></trkpt><trkpt lat="46.06104384994644" lon="12.556464603716728"><ele>142.0</ele><time>2026-04-25T10:28:32Z</time></trkpt><trkpt lat="46.06108199065073" lon="12.556548826043876"><ele>142.0</ele><time>2026-04-25T10:28:38Z</time></trkpt><trkpt lat="46.061123642416355" lon="12.556618856976229"><ele>142.0</ele><time>2026-04-25T10:28:43Z</time></trkpt><trkpt lat="46.06118722191065" lon="12.556670581024274"><ele>142.0</ele><time>2026-04-25T10:28:51.001Z</time></trkpt><trkpt lat="46.06123671146424" lon="12.556751134631178"><ele>142.0</ele><time>2026-04-25T10:29:01.001Z</time></trkpt><trkpt lat="46.06122631351783" lon="12.556841209392656"><ele>142.0</ele><time>2026-04-25T10:29:06.001Z</time></trkpt><trkpt lat="46.061185490947295" lon="12.556923665739689"><ele>142.0</ele><time>2026-04-25T10:29:11.001Z</time></trkpt><trkpt lat="46.061152607697764" lon="12.557006450453805"><ele>142.0</ele><time>2026-04-25T10:29:18.001Z</time></trkpt><trkpt lat="46.061129432610535" lon="12.557092323716994"><ele>142.0</ele><time>2026-04-25T10:29:36.002Z</time></trkpt><trkpt lat="46.061068579752295" lon="12.557143475972424"><ele>142.0</ele><time>2026-04-25T10:29:43.002Z</time></trkpt><trkpt lat="46.06101106338526" lon="12.557185104851573"><ele>142.0</ele><time>2026-04-25T10:29:48.002Z</time></trkpt><trkpt lat="46.060961054459156" lon="12.557251475056958"><ele>142.0</ele><time>2026-04-25T10:29:54.002Z</time></trkpt><trkpt lat="46.06091536269289" lon="12.557328366731136"><ele>142.0</ele><time>2026-04-25T10:30:00.002Z</time></trkpt><trkpt lat="46.060862449648894" lon="12.557403811424177"><ele>141.71428571428572</ele><time>2026-04-25T10:30:06.002Z</time></trkpt><trkpt lat="46.06081023676759" lon="12.557476409498818"><ele>141.42857142857142</ele><time>2026-04-25T10:30:11.002Z</time></trkpt><trkpt lat="46.060741945494286" lon="12.557512944634137"><ele>141.14285714285714</ele><time>2026-04-25T10:30:16.002Z</time></trkpt><trkpt lat="46.06067767257396" lon="12.557513381595516"><ele>140.85714285714286</ele><time>2026-04-25T10:30:22.001Z</time></trkpt><trkpt lat="46.0606173531849" lon="12.557574506785247"><ele>140.57142857142856</ele><time>2026-04-25T10:30:29.001Z</time></trkpt><trkpt lat="46.06054892322674" lon="12.557580162552417"><ele>140.28571428571428</ele><time>2026-04-25T10:30:35.001Z</time></trkpt><trkpt lat="46.06051033414633" lon="12.557493431619653"><ele>140.0</ele><time>2026-04-25T10:30:41.001Z</time></trkpt><trkpt lat="46.06047090671952" lon="12.557418192866573"><ele>139.71428571428572</ele><time>2026-04-25T10:30:46.001Z</time></trkpt><trkpt lat="46.060406760647375" lon="12.55739362139996"><ele>139.42857142857144</ele><time>2026-04-25T10:30:52.001Z</time></trkpt><trkpt lat="46.06033452045775" lon="12.55742378472215"><ele>139.14285714285714</ele><time>2026-04-25T10:30:58.001Z</time></trkpt><trkpt lat="46.06026199138277" lon="12.55745753924294"><ele>138.85714285714286</ele><time>2026-04-25T10:31:04.001Z</time></trkpt><trkpt lat="46.06019536068996" lon="12.557511448349523"><ele>138.57142857142858</ele><time>2026-04-25T10:31:09.001Z</time></trkpt><trkpt lat="46.060126151436414" lon="12.557538685190265"><ele>138.28571428571428</ele><time>2026-04-25T10:31:14.001Z</time></trkpt><trkpt lat="46.06006133865654" lon="12.557551847206266"><ele>138.0</ele><time>2026-04-25T10:31:19.001Z</time></trkpt><trkpt lat="46.06005805042123" lon="12.557659765010184"><ele>138.0</ele><time>2026-04-25T10:31:37.002Z</time></trkpt><trkpt lat="46.06007922899544" lon="12.557748553841932"><ele>138.0</ele><time>2026-04-25T10:31:43.002Z</time></trkpt><trkpt lat="46.060088553473555" lon="12.557857425500684"><ele>138.0</ele><time>2026-04-25T10:31:50.002Z</time></trkpt><trkpt lat="46.0601092701025" lon="12.55795651366486"><ele>138.0</ele><time>2026-04-25T10:31:55.002Z</time></trkpt><trkpt lat="46.06008488719684" lon="12.558047358843398"><ele>138.0</ele><time>2026-04-25T10:32:01.002Z</time></trkpt><trkpt lat="46.06006079787997" lon="12.558156508664073"><ele>138.0</ele><time>2026-04-25T10:32:08.002Z</time></trkpt><trkpt lat="46.06003142241594" lon="12.558239537342125"><ele>138.0</ele><time>2026-04-25T10:32:13.002Z</time></trkpt><trkpt lat="46.05996936563954" lon="12.558296915143686"><ele>137.42857142857144</ele><time>2026-04-25T10:32:18.002Z</time></trkpt><trkpt lat="46.059914908011045" lon="12.558353790491863"><ele>136.85714285714286</ele><time>2026-04-25T10:32:23.001Z</time></trkpt><trkpt lat="46.05985686840649" lon="12.55842290361748"><ele>136.28571428571428</ele><time>2026-04-25T10:32:28.001Z</time></trkpt><trkpt lat="46.05978851181872" lon="12.55844818000206"><ele>135.71428571428572</ele><time>2026-04-25T10:32:34.001Z</time></trkpt><trkpt lat="46.059743079464916" lon="12.558371475417978"><ele>135.14285714285714</ele><time>2026-04-25T10:32:39.001Z</time></trkpt><trkpt lat="46.05971188507306" lon="12.558288074463006"><ele>134.57142857142858</ele><time>2026-04-25T10:32:44.001Z</time></trkpt><trkpt lat="46.05964553689121" lon="12.55827275814884"><ele>134.0</ele><time>2026-04-25T10:32:50.001Z</time></trkpt><trkpt lat="46.059641068209274" lon="12.558371450010023"><ele>134.0</ele><time>2026-04-25T10:32:53.001Z</time></trkpt><trkpt lat="46.05968279375495" lon="12.558445224805123"><ele>134.0</ele><time>2026-04-25T10:32:57.001Z</time></trkpt><trkpt lat="46.05972465245143" lon="12.558526185327715"><ele>134.0</ele><time>2026-04-25T10:33:02.001Z</time></trkpt><trkpt lat="46.05973755671194" lon="12.558621161677381"><ele>134.0</ele><time>2026-04-25T10:33:07.001Z</time></trkpt><trkpt lat="46.059674742494664" lon="12.558658668216056"><ele>134.0</ele><time>2026-04-25T10:33:11.001Z</time></trkpt><trkpt lat="46.059613880919855" lon="12.558700203959738"><ele>134.0</ele><time>2026-04-25T10:33:16.001Z</time></trkpt><trkpt lat="46.05955703261304" lon="12.558752719432837"><ele>134.0</ele><time>2026-04-25T10:33:21.001Z</time></trkpt><trkpt lat="46.05950298813516" lon="12.558820720247184"><ele>133.85714285714286</ele><time>2026-04-25T10:33:28.001Z</time></trkpt><trkpt lat="46.059440586496834" lon="12.55888052721032"><ele>133.71428571428572</ele><time>2026-04-25T10:33:34.001Z</time></trkpt><trkpt lat="46.05938390214404" lon="12.558952317267986"><ele>133.57142857142856</ele><time>2026-04-25T10:33:40.001Z</time></trkpt><trkpt lat="46.059314376441115" lon="12.558960417277621"><ele>133.42857142857144</ele><time>2026-04-25T10:33:47.002Z</time></trkpt><trkpt lat="46.05925050672713" lon="12.558897947276249"><ele>133.28571428571428</ele><time>2026-04-25T10:33:55.002Z</time></trkpt><trkpt lat="46.05920547731713" lon="12.558832054118392"><ele>133.14285714285714</ele><time>2026-04-25T10:34:01.002Z</time></trkpt><trkpt lat="46.05916505424201" lon="12.558756251524578"><ele>133.0</ele><time>2026-04-25T10:34:06.002Z</time></trkpt><trkpt lat="46.05910619286389" lon="12.558695397355743"><ele>133.0</ele><time>2026-04-25T10:34:12.002Z</time></trkpt><trkpt lat="46.05905879359839" lon="12.558619559764104"><ele>133.0</ele><time>2026-04-25T10:34:18.002Z</time></trkpt><trkpt lat="46.05900843134626" lon="12.55853885685194"><ele>133.0</ele><time>2026-04-25T10:34:24.002Z</time></trkpt><trkpt lat="46.058951763398056" lon="12.558493271533118"><ele>133.0</ele><time>2026-04-25T10:34:30.001Z</time></trkpt><trkpt lat="46.05890263081912" lon="12.558419239013514"><ele>133.0</ele><time>2026-04-25T10:34:37.001Z</time></trkpt></trkseg></trk></gpx>